<?xml version="1.0" encoding="UTF-8" standalone="no" ?>
<gpx xmlns="http://www.topografix.com/GPX/1/1" xmlns:xsi="http://www.w3.org/2001/XMLSchema-instance" xsi:schemaLocation="http://www.topografix.com/GPX/1/1 http://www.topografix.com/GPX/1/1/gpx.xsd" version="1.1" creator="VisuGPX - https://www.visugpx.com">
  <metadata>
    <name>telethon pressigny</name>
    <desc><![CDATA[.............................................................................................................]]></desc>
  </metadata>
  <trk>
    <name><![CDATA[telethon pressigny_1]]></name>
    <trkseg>
      <trkpt lat="46.72818" lon="-0.16483">
        <ele>123.9</ele>
        <time>2017-12-04T23:09:15.000Z</time>
      </trkpt>
      <trkpt lat="46.7283" lon="-0.16446">
        <ele>121.5</ele>
        <time>2017-12-04T23:09:15.562Z</time>
      </trkpt>
      <trkpt lat="46.72834" lon="-0.16426">
        <ele>119.6</ele>
        <time>2017-12-04T23:09:15.848Z</time>
      </trkpt>
      <trkpt lat="46.72836" lon="-0.1639">
        <ele>117.9</ele>
        <time>2017-12-04T23:09:16.344Z</time>
      </trkpt>
      <trkpt lat="46.7284" lon="-0.16295">
        <ele>114.5</ele>
        <time>2017-12-04T23:09:17.651Z</time>
      </trkpt>
      <trkpt lat="46.72843" lon="-0.16237">
        <ele>113.3</ele>
        <time>2017-12-04T23:09:18.450Z</time>
      </trkpt>
      <trkpt lat="46.72846" lon="-0.16209">
        <ele>112.8</ele>
        <time>2017-12-04T23:09:18.839Z</time>
      </trkpt>
      <trkpt lat="46.72857" lon="-0.16148">
        <ele>111.5</ele>
        <time>2017-12-04T23:09:19.705Z</time>
      </trkpt>
      <trkpt lat="46.72865" lon="-0.16081">
        <ele>110</ele>
        <time>2017-12-04T23:09:20.639Z</time>
      </trkpt>
      <trkpt lat="46.72877" lon="-0.15934">
        <ele>107.8</ele>
        <time>2017-12-04T23:09:22.672Z</time>
      </trkpt>
      <trkpt lat="46.72876" lon="-0.15911">
        <ele>107.3</ele>
        <time>2017-12-04T23:09:22.989Z</time>
      </trkpt>
      <trkpt lat="46.72879" lon="-0.1589">
        <ele>106.4</ele>
        <time>2017-12-04T23:09:23.284Z</time>
      </trkpt>
      <trkpt lat="46.72887" lon="-0.15838">
        <ele>106.1</ele>
        <time>2017-12-04T23:09:24.016Z</time>
      </trkpt>
      <trkpt lat="46.72886" lon="-0.15838">
        <ele>106.1</ele>
        <time>2017-12-04T23:09:24.036Z</time>
      </trkpt>
      <trkpt lat="46.72886" lon="-0.15837">
        <ele>106.1</ele>
        <time>2017-12-04T23:09:24.050Z</time>
      </trkpt>
      <trkpt lat="46.72885" lon="-0.15836">
        <ele>106.1</ele>
        <time>2017-12-04T23:09:24.074Z</time>
      </trkpt>
      <trkpt lat="46.72884" lon="-0.15834">
        <ele>106.2</ele>
        <time>2017-12-04T23:09:24.108Z</time>
      </trkpt>
      <trkpt lat="46.72884" lon="-0.15827">
        <ele>106</ele>
        <time>2017-12-04T23:09:24.204Z</time>
      </trkpt>
      <trkpt lat="46.72887" lon="-0.15822">
        <ele>105.7</ele>
        <time>2017-12-04T23:09:24.295Z</time>
      </trkpt>
      <trkpt lat="46.72889" lon="-0.15822">
        <ele>105.6</ele>
        <time>2017-12-04T23:09:24.335Z</time>
      </trkpt>
      <trkpt lat="46.72895" lon="-0.15788">
        <ele>103.4</ele>
        <time>2017-12-04T23:09:24.817Z</time>
      </trkpt>
      <trkpt lat="46.72908" lon="-0.15729">
        <ele>100.5</ele>
        <time>2017-12-04T23:09:25.668Z</time>
      </trkpt>
      <trkpt lat="46.72922" lon="-0.15684">
        <ele>98</ele>
        <time>2017-12-04T23:09:26.347Z</time>
      </trkpt>
      <trkpt lat="46.72979" lon="-0.15549">
        <ele>94.2</ele>
        <time>2017-12-04T23:09:28.525Z</time>
      </trkpt>
      <trkpt lat="46.7301" lon="-0.15478">
        <ele>96.9</ele>
        <time>2017-12-04T23:09:29.681Z</time>
      </trkpt>
      <trkpt lat="46.73007" lon="-0.15485">
        <ele>96.9</ele>
        <time>2017-12-04T23:09:29.794Z</time>
      </trkpt>
      <trkpt lat="46.7302" lon="-0.15494">
        <ele>96.4</ele>
        <time>2017-12-04T23:09:30.082Z</time>
      </trkpt>
      <trkpt lat="46.73037" lon="-0.15507">
        <ele>95.8</ele>
        <time>2017-12-04T23:09:30.467Z</time>
      </trkpt>
      <trkpt lat="46.73046" lon="-0.15513">
        <ele>95.8</ele>
        <time>2017-12-04T23:09:30.665Z</time>
      </trkpt>
      <trkpt lat="46.73054" lon="-0.1549">
        <ele>96.4</ele>
        <time>2017-12-04T23:09:31.019Z</time>
      </trkpt>
      <trkpt lat="46.73092" lon="-0.15415">
        <ele>100.2</ele>
        <time>2017-12-04T23:09:32.300Z</time>
      </trkpt>
      <trkpt lat="46.73112" lon="-0.15371">
        <ele>103.3</ele>
        <time>2017-12-04T23:09:33.025Z</time>
      </trkpt>
      <trkpt lat="46.73122" lon="-0.15372">
        <ele>103.5</ele>
        <time>2017-12-04T23:09:33.226Z</time>
      </trkpt>
      <trkpt lat="46.73137" lon="-0.15366">
        <ele>104.4</ele>
        <time>2017-12-04T23:09:33.538Z</time>
      </trkpt>
      <trkpt lat="46.73138" lon="-0.15361">
        <ele>105</ele>
        <time>2017-12-04T23:09:33.610Z</time>
      </trkpt>
      <trkpt lat="46.73165" lon="-0.15288">
        <ele>110.2</ele>
        <time>2017-12-04T23:09:34.749Z</time>
      </trkpt>
      <trkpt lat="46.73194" lon="-0.15199">
        <ele>113.9</ele>
        <time>2017-12-04T23:09:36.103Z</time>
      </trkpt>
      <trkpt lat="46.7323" lon="-0.15112">
        <ele>117.7</ele>
        <time>2017-12-04T23:09:37.499Z</time>
      </trkpt>
      <trkpt lat="46.7328" lon="-0.14994">
        <ele>122.7</ele>
        <time>2017-12-04T23:09:39.404Z</time>
      </trkpt>
      <trkpt lat="46.73308" lon="-0.14941">
        <ele>126.3</ele>
        <time>2017-12-04T23:09:40.323Z</time>
      </trkpt>
      <trkpt lat="46.73318" lon="-0.14931">
        <ele>127.4</ele>
        <time>2017-12-04T23:09:40.566Z</time>
      </trkpt>
      <trkpt lat="46.73335" lon="-0.14921">
        <ele>128.7</ele>
        <time>2017-12-04T23:09:40.933Z</time>
      </trkpt>
      <trkpt lat="46.73344" lon="-0.14917">
        <ele>129</ele>
        <time>2017-12-04T23:09:41.122Z</time>
      </trkpt>
      <trkpt lat="46.73361" lon="-0.14905">
        <ele>129.8</ele>
        <time>2017-12-04T23:09:41.500Z</time>
      </trkpt>
      <trkpt lat="46.73392" lon="-0.1487">
        <ele>131.3</ele>
        <time>2017-12-04T23:09:42.285Z</time>
      </trkpt>
      <trkpt lat="46.73407" lon="-0.14851">
        <ele>131.7</ele>
        <time>2017-12-04T23:09:42.683Z</time>
      </trkpt>
      <trkpt lat="46.73433" lon="-0.14813">
        <ele>133.5</ele>
        <time>2017-12-04T23:09:43.420Z</time>
      </trkpt>
      <trkpt lat="46.73456" lon="-0.14771">
        <ele>137.3</ele>
        <time>2017-12-04T23:09:44.158Z</time>
      </trkpt>
      <trkpt lat="46.73495" lon="-0.14721">
        <ele>139.7</ele>
        <time>2017-12-04T23:09:45.198Z</time>
      </trkpt>
      <trkpt lat="46.73523" lon="-0.14681">
        <ele>141.4</ele>
        <time>2017-12-04T23:09:45.983Z</time>
      </trkpt>
      <trkpt lat="46.73549" lon="-0.14637">
        <ele>144.8</ele>
        <time>2017-12-04T23:09:46.781Z</time>
      </trkpt>
      <trkpt lat="46.73564" lon="-0.14608">
        <ele>146.3</ele>
        <time>2017-12-04T23:09:47.280Z</time>
      </trkpt>
      <trkpt lat="46.7359" lon="-0.14558">
        <ele>148.6</ele>
        <time>2017-12-04T23:09:48.142Z</time>
      </trkpt>
      <trkpt lat="46.73683" lon="-0.14381">
        <ele>150.7</ele>
        <time>2017-12-04T23:09:51.205Z</time>
      </trkpt>
      <trkpt lat="46.73718" lon="-0.14312">
        <ele>153.8</ele>
        <time>2017-12-04T23:09:52.384Z</time>
      </trkpt>
      <trkpt lat="46.73744" lon="-0.14254">
        <ele>156.9</ele>
        <time>2017-12-04T23:09:53.336Z</time>
      </trkpt>
      <trkpt lat="46.73758" lon="-0.14217">
        <ele>158.3</ele>
        <time>2017-12-04T23:09:53.916Z</time>
      </trkpt>
      <trkpt lat="46.73778" lon="-0.14178">
        <ele>159.6</ele>
        <time>2017-12-04T23:09:54.585Z</time>
      </trkpt>
      <trkpt lat="46.73819" lon="-0.14114">
        <ele>160.5</ele>
        <time>2017-12-04T23:09:55.788Z</time>
      </trkpt>
      <trkpt lat="46.73834" lon="-0.14097">
        <ele>160.5</ele>
        <time>2017-12-04T23:09:56.169Z</time>
      </trkpt>
      <trkpt lat="46.73901" lon="-0.13988">
        <ele>161</ele>
        <time>2017-12-04T23:09:58.180Z</time>
      </trkpt>
      <trkpt lat="46.73917" lon="-0.13971">
        <ele>161</ele>
        <time>2017-12-04T23:09:58.577Z</time>
      </trkpt>
      <trkpt lat="46.73964" lon="-0.13925">
        <ele>161</ele>
        <time>2017-12-04T23:09:59.711Z</time>
      </trkpt>
      <trkpt lat="46.74017" lon="-0.13867">
        <ele>161</ele>
        <time>2017-12-04T23:10:01.039Z</time>
      </trkpt>
      <trkpt lat="46.74069" lon="-0.13813">
        <ele>160.5</ele>
        <time>2017-12-04T23:10:02.318Z</time>
      </trkpt>
      <trkpt lat="46.74122" lon="-0.1375">
        <ele>160.4</ele>
        <time>2017-12-04T23:10:03.688Z</time>
      </trkpt>
      <trkpt lat="46.74154" lon="-0.13721">
        <ele>160.6</ele>
        <time>2017-12-04T23:10:04.443Z</time>
      </trkpt>
      <trkpt lat="46.74168" lon="-0.13709">
        <ele>161</ele>
        <time>2017-12-04T23:10:04.768Z</time>
      </trkpt>
      <trkpt lat="46.74173" lon="-0.13712">
        <ele>161</ele>
        <time>2017-12-04T23:10:04.876Z</time>
      </trkpt>
      <trkpt lat="46.74183" lon="-0.13689">
        <ele>160.9</ele>
        <time>2017-12-04T23:10:05.250Z</time>
      </trkpt>
      <trkpt lat="46.74215" lon="-0.13646">
        <ele>160.8</ele>
        <time>2017-12-04T23:10:06.122Z</time>
      </trkpt>
      <trkpt lat="46.74266" lon="-0.13573">
        <ele>160</ele>
        <time>2017-12-04T23:10:07.554Z</time>
      </trkpt>
      <trkpt lat="46.74316" lon="-0.13506">
        <ele>160</ele>
        <time>2017-12-04T23:10:08.914Z</time>
      </trkpt>
      <trkpt lat="46.74358" lon="-0.13449">
        <ele>159</ele>
        <time>2017-12-04T23:10:10.063Z</time>
      </trkpt>
      <trkpt lat="46.74374" lon="-0.13431">
        <ele>158.7</ele>
        <time>2017-12-04T23:10:10.468Z</time>
      </trkpt>
      <trkpt lat="46.74392" lon="-0.13411">
        <ele>158.7</ele>
        <time>2017-12-04T23:10:10.921Z</time>
      </trkpt>
      <trkpt lat="46.74426" lon="-0.13355">
        <ele>157.8</ele>
        <time>2017-12-04T23:10:11.948Z</time>
      </trkpt>
      <trkpt lat="46.74455" lon="-0.13315">
        <ele>157</ele>
        <time>2017-12-04T23:10:12.748Z</time>
      </trkpt>
      <trkpt lat="46.74471" lon="-0.13287">
        <ele>156.3</ele>
        <time>2017-12-04T23:10:13.249Z</time>
      </trkpt>
      <trkpt lat="46.74473" lon="-0.13275">
        <ele>155.9</ele>
        <time>2017-12-04T23:10:13.419Z</time>
      </trkpt>
      <trkpt lat="46.74466" lon="-0.13223">
        <ele>155</ele>
        <time>2017-12-04T23:10:14.147Z</time>
      </trkpt>
      <trkpt lat="46.74455" lon="-0.13138">
        <ele>152.3</ele>
        <time>2017-12-04T23:10:15.335Z</time>
      </trkpt>
      <trkpt lat="46.74455" lon="-0.13117">
        <ele>151.3</ele>
        <time>2017-12-04T23:10:15.623Z</time>
      </trkpt>
      <trkpt lat="46.74462" lon="-0.13067">
        <ele>148.5</ele>
        <time>2017-12-04T23:10:16.324Z</time>
      </trkpt>
      <trkpt lat="46.7447" lon="-0.13017">
        <ele>145.1</ele>
        <time>2017-12-04T23:10:17.029Z</time>
      </trkpt>
      <trkpt lat="46.74484" lon="-0.12932">
        <ele>139.7</ele>
        <time>2017-12-04T23:10:18.229Z</time>
      </trkpt>
      <trkpt lat="46.7449" lon="-0.12919">
        <ele>138.5</ele>
        <time>2017-12-04T23:10:18.444Z</time>
      </trkpt>
      <trkpt lat="46.74503" lon="-0.12897">
        <ele>137.1</ele>
        <time>2017-12-04T23:10:18.843Z</time>
      </trkpt>
      <trkpt lat="46.74529" lon="-0.1285">
        <ele>132.2</ele>
        <time>2017-12-04T23:10:19.672Z</time>
      </trkpt>
      <trkpt lat="46.74563" lon="-0.12758">
        <ele>124.3</ele>
        <time>2017-12-04T23:10:21.107Z</time>
      </trkpt>
      <trkpt lat="46.74568" lon="-0.12747">
        <ele>124</ele>
        <time>2017-12-04T23:10:21.288Z</time>
      </trkpt>
      <trkpt lat="46.74569" lon="-0.12745">
        <ele>124</ele>
        <time>2017-12-04T23:10:21.322Z</time>
      </trkpt>
      <trkpt lat="46.74569" lon="-0.1275">
        <ele>124</ele>
        <time>2017-12-04T23:10:21.391Z</time>
      </trkpt>
      <trkpt lat="46.74571" lon="-0.12761">
        <ele>124.4</ele>
        <time>2017-12-04T23:10:21.547Z</time>
      </trkpt>
      <trkpt lat="46.74576" lon="-0.12769">
        <ele>124.7</ele>
        <time>2017-12-04T23:10:21.696Z</time>
      </trkpt>
      <trkpt lat="46.74588" lon="-0.12778">
        <ele>125</ele>
        <time>2017-12-04T23:10:21.966Z</time>
      </trkpt>
      <trkpt lat="46.74597" lon="-0.12782">
        <ele>125.5</ele>
        <time>2017-12-04T23:10:22.155Z</time>
      </trkpt>
      <trkpt lat="46.74627" lon="-0.1279">
        <ele>126.8</ele>
        <time>2017-12-04T23:10:22.766Z</time>
      </trkpt>
      <trkpt lat="46.74639" lon="-0.1279">
        <ele>126.8</ele>
        <time>2017-12-04T23:10:23.006Z</time>
      </trkpt>
      <trkpt lat="46.7465" lon="-0.12786">
        <ele>125.7</ele>
        <time>2017-12-04T23:10:23.233Z</time>
      </trkpt>
      <trkpt lat="46.74704" lon="-0.12751">
        <ele>122.1</ele>
        <time>2017-12-04T23:10:24.417Z</time>
      </trkpt>
      <trkpt lat="46.74774" lon="-0.12695">
        <ele>121.9</ele>
        <time>2017-12-04T23:10:26.017Z</time>
      </trkpt>
      <trkpt lat="46.74788" lon="-0.12687">
        <ele>121.9</ele>
        <time>2017-12-04T23:10:26.318Z</time>
      </trkpt>
      <trkpt lat="46.74817" lon="-0.1268">
        <ele>121.3</ele>
        <time>2017-12-04T23:10:26.907Z</time>
      </trkpt>
      <trkpt lat="46.74872" lon="-0.12678">
        <ele>121</ele>
        <time>2017-12-04T23:10:28.010Z</time>
      </trkpt>
      <trkpt lat="46.74901" lon="-0.12673">
        <ele>120.7</ele>
        <time>2017-12-04T23:10:28.595Z</time>
      </trkpt>
      <trkpt lat="46.74922" lon="-0.12667">
        <ele>120.2</ele>
        <time>2017-12-04T23:10:29.024Z</time>
      </trkpt>
      <trkpt lat="46.75022" lon="-0.12631">
        <ele>119</ele>
        <time>2017-12-04T23:10:31.088Z</time>
      </trkpt>
      <trkpt lat="46.75043" lon="-0.12625">
        <ele>118.7</ele>
        <time>2017-12-04T23:10:31.517Z</time>
      </trkpt>
      <trkpt lat="46.75066" lon="-0.12621">
        <ele>118.4</ele>
        <time>2017-12-04T23:10:31.981Z</time>
      </trkpt>
      <trkpt lat="46.75092" lon="-0.12622">
        <ele>118.3</ele>
        <time>2017-12-04T23:10:32.502Z</time>
      </trkpt>
      <trkpt lat="46.75119" lon="-0.12625">
        <ele>117.9</ele>
        <time>2017-12-04T23:10:33.045Z</time>
      </trkpt>
      <trkpt lat="46.75119" lon="-0.1262">
        <ele>117.8</ele>
        <time>2017-12-04T23:10:33.114Z</time>
      </trkpt>
      <trkpt lat="46.75116" lon="-0.12609">
        <ele>117.9</ele>
        <time>2017-12-04T23:10:33.277Z</time>
      </trkpt>
      <trkpt lat="46.75109" lon="-0.12578">
        <ele>119.6</ele>
        <time>2017-12-04T23:10:33.725Z</time>
      </trkpt>
      <trkpt lat="46.75112" lon="-0.1256">
        <ele>121.5</ele>
        <time>2017-12-04T23:10:33.979Z</time>
      </trkpt>
      <trkpt lat="46.75116" lon="-0.12553">
        <ele>122.4</ele>
        <time>2017-12-04T23:10:34.104Z</time>
      </trkpt>
      <trkpt lat="46.75126" lon="-0.12546">
        <ele>123.4</ele>
        <time>2017-12-04T23:10:34.326Z</time>
      </trkpt>
      <trkpt lat="46.75163" lon="-0.12526">
        <ele>125.4</ele>
        <time>2017-12-04T23:10:35.117Z</time>
      </trkpt>
      <trkpt lat="46.75168" lon="-0.12517">
        <ele>126.3</ele>
        <time>2017-12-04T23:10:35.276Z</time>
      </trkpt>
      <trkpt lat="46.75167" lon="-0.12499">
        <ele>129</ele>
        <time>2017-12-04T23:10:35.524Z</time>
      </trkpt>
      <trkpt lat="46.75153" lon="-0.12475">
        <ele>132.2</ele>
        <time>2017-12-04T23:10:35.957Z</time>
      </trkpt>
      <trkpt lat="46.75147" lon="-0.12461">
        <ele>133.5</ele>
        <time>2017-12-04T23:10:36.184Z</time>
      </trkpt>
      <trkpt lat="46.75146" lon="-0.1245">
        <ele>134.3</ele>
        <time>2017-12-04T23:10:36.336Z</time>
      </trkpt>
      <trkpt lat="46.75153" lon="-0.12393">
        <ele>137.7</ele>
        <time>2017-12-04T23:10:37.131Z</time>
      </trkpt>
      <trkpt lat="46.7515" lon="-0.12374">
        <ele>139.1</ele>
        <time>2017-12-04T23:10:37.399Z</time>
      </trkpt>
      <trkpt lat="46.7513" lon="-0.12335">
        <ele>143.5</ele>
        <time>2017-12-04T23:10:38.068Z</time>
      </trkpt>
      <trkpt lat="46.75127" lon="-0.12302">
        <ele>145.1</ele>
        <time>2017-12-04T23:10:38.525Z</time>
      </trkpt>
      <trkpt lat="46.75101" lon="-0.12311">
        <ele>146.2</ele>
        <time>2017-12-04T23:10:39.060Z</time>
      </trkpt>
      <trkpt lat="46.75065" lon="-0.12314">
        <ele>147.4</ele>
        <time>2017-12-04T23:10:39.783Z</time>
      </trkpt>
      <trkpt lat="46.75016" lon="-0.12316">
        <ele>148.3</ele>
        <time>2017-12-04T23:10:40.765Z</time>
      </trkpt>
      <trkpt lat="46.75004" lon="-0.12313">
        <ele>148.6</ele>
        <time>2017-12-04T23:10:41.009Z</time>
      </trkpt>
      <trkpt lat="46.74937" lon="-0.12274">
        <ele>149.1</ele>
        <time>2017-12-04T23:10:42.454Z</time>
      </trkpt>
      <trkpt lat="46.74942" lon="-0.12236">
        <ele>150</ele>
        <time>2017-12-04T23:10:42.985Z</time>
      </trkpt>
      <trkpt lat="46.74963" lon="-0.12114">
        <ele>150.6</ele>
        <time>2017-12-04T23:10:44.712Z</time>
      </trkpt>
      <trkpt lat="46.74978" lon="-0.12056">
        <ele>151</ele>
        <time>2017-12-04T23:10:45.563Z</time>
      </trkpt>
      <trkpt lat="46.74963" lon="-0.12114">
        <ele>150.6</ele>
        <time>2017-12-04T23:10:46.414Z</time>
      </trkpt>
      <trkpt lat="46.74953" lon="-0.1217">
        <ele>150</ele>
        <time>2017-12-04T23:10:47.209Z</time>
      </trkpt>
      <trkpt lat="46.74939" lon="-0.1226">
        <ele>149.5</ele>
        <time>2017-12-04T23:10:48.476Z</time>
      </trkpt>
      <trkpt lat="46.74937" lon="-0.12274">
        <ele>149.1</ele>
        <time>2017-12-04T23:10:48.672Z</time>
      </trkpt>
      <trkpt lat="46.74957" lon="-0.12287">
        <ele>149</ele>
        <time>2017-12-04T23:10:49.111Z</time>
      </trkpt>
      <trkpt lat="46.75004" lon="-0.12313">
        <ele>148.6</ele>
        <time>2017-12-04T23:10:50.118Z</time>
      </trkpt>
      <trkpt lat="46.75009" lon="-0.12314">
        <ele>148.5</ele>
        <time>2017-12-04T23:10:50.219Z</time>
      </trkpt>
      <trkpt lat="46.74998" lon="-0.1231">
        <ele>148.8</ele>
        <time>2017-12-04T23:10:50.446Z</time>
      </trkpt>
      <trkpt lat="46.74969" lon="-0.12294">
        <ele>149</ele>
        <time>2017-12-04T23:10:51.067Z</time>
      </trkpt>
      <trkpt lat="46.74937" lon="-0.12274">
        <ele>149.1</ele>
        <time>2017-12-04T23:10:51.765Z</time>
      </trkpt>
      <trkpt lat="46.74938" lon="-0.12269">
        <ele>149.2</ele>
        <time>2017-12-04T23:10:51.837Z</time>
      </trkpt>
      <trkpt lat="46.74953" lon="-0.1217">
        <ele>150</ele>
        <time>2017-12-04T23:10:53.229Z</time>
      </trkpt>
      <trkpt lat="46.74963" lon="-0.12114">
        <ele>150.6</ele>
        <time>2017-12-04T23:10:54.024Z</time>
      </trkpt>
      <trkpt lat="46.7499" lon="-0.12007">
        <ele>151</ele>
        <time>2017-12-04T23:10:55.590Z</time>
      </trkpt>
      <trkpt lat="46.7502" lon="-0.11898">
        <ele>151</ele>
        <time>2017-12-04T23:10:57.203Z</time>
      </trkpt>
      <trkpt lat="46.75024" lon="-0.11879">
        <ele>151</ele>
        <time>2017-12-04T23:10:57.476Z</time>
      </trkpt>
      <trkpt lat="46.75044" lon="-0.11797">
        <ele>151.4</ele>
        <time>2017-12-04T23:10:58.671Z</time>
      </trkpt>
      <trkpt lat="46.75062" lon="-0.11713">
        <ele>151.5</ele>
        <time>2017-12-04T23:10:59.879Z</time>
      </trkpt>
      <trkpt lat="46.75087" lon="-0.11621">
        <ele>150.8</ele>
        <time>2017-12-04T23:11:01.238Z</time>
      </trkpt>
      <trkpt lat="46.75149" lon="-0.11391">
        <ele>150.6</ele>
        <time>2017-12-04T23:11:04.632Z</time>
      </trkpt>
      <trkpt lat="46.75182" lon="-0.11275">
        <ele>149.5</ele>
        <time>2017-12-04T23:11:06.357Z</time>
      </trkpt>
      <trkpt lat="46.75188" lon="-0.11258">
        <ele>149.8</ele>
        <time>2017-12-04T23:11:06.620Z</time>
      </trkpt>
      <trkpt lat="46.75233" lon="-0.11166">
        <ele>149.6</ele>
        <time>2017-12-04T23:11:08.172Z</time>
      </trkpt>
      <trkpt lat="46.75252" lon="-0.11126">
        <ele>149.4</ele>
        <time>2017-12-04T23:11:08.840Z</time>
      </trkpt>
      <trkpt lat="46.75258" lon="-0.11127">
        <ele>149.1</ele>
        <time>2017-12-04T23:11:08.961Z</time>
      </trkpt>
      <trkpt lat="46.75273" lon="-0.11127">
        <ele>148.6</ele>
        <time>2017-12-04T23:11:09.262Z</time>
      </trkpt>
      <trkpt lat="46.75324" lon="-0.11121">
        <ele>147.8</ele>
        <time>2017-12-04T23:11:10.287Z</time>
      </trkpt>
      <trkpt lat="46.75339" lon="-0.11121">
        <ele>147.5</ele>
        <time>2017-12-04T23:11:10.588Z</time>
      </trkpt>
      <trkpt lat="46.7536" lon="-0.11126">
        <ele>147</ele>
        <time>2017-12-04T23:11:11.014Z</time>
      </trkpt>
      <trkpt lat="46.7537" lon="-0.11129">
        <ele>146.8</ele>
        <time>2017-12-04T23:11:11.219Z</time>
      </trkpt>
      <trkpt lat="46.75371" lon="-0.11122">
        <ele>146.9</ele>
        <time>2017-12-04T23:11:11.317Z</time>
      </trkpt>
      <trkpt lat="46.75382" lon="-0.11069">
        <ele>147.6</ele>
        <time>2017-12-04T23:11:12.077Z</time>
      </trkpt>
      <trkpt lat="46.75388" lon="-0.11038">
        <ele>148</ele>
        <time>2017-12-04T23:11:12.519Z</time>
      </trkpt>
      <trkpt lat="46.7539" lon="-0.11012">
        <ele>148</ele>
        <time>2017-12-04T23:11:12.878Z</time>
      </trkpt>
      <trkpt lat="46.75398" lon="-0.10983">
        <ele>148</ele>
        <time>2017-12-04T23:11:13.307Z</time>
      </trkpt>
      <trkpt lat="46.75406" lon="-0.10968">
        <ele>148.1</ele>
        <time>2017-12-04T23:11:13.568Z</time>
      </trkpt>
      <trkpt lat="46.75472" lon="-0.10878">
        <ele>147.6</ele>
        <time>2017-12-04T23:11:15.378Z</time>
      </trkpt>
      <trkpt lat="46.75494" lon="-0.10855">
        <ele>147</ele>
        <time>2017-12-04T23:11:15.920Z</time>
      </trkpt>
      <trkpt lat="46.75515" lon="-0.10839">
        <ele>146.6</ele>
        <time>2017-12-04T23:11:16.395Z</time>
      </trkpt>
      <trkpt lat="46.75579" lon="-0.10795">
        <ele>146</ele>
        <time>2017-12-04T23:11:17.813Z</time>
      </trkpt>
      <trkpt lat="46.75587" lon="-0.10786">
        <ele>146</ele>
        <time>2017-12-04T23:11:18.015Z</time>
      </trkpt>
      <trkpt lat="46.75597" lon="-0.10772">
        <ele>146</ele>
        <time>2017-12-04T23:11:18.293Z</time>
      </trkpt>
      <trkpt lat="46.75613" lon="-0.10742">
        <ele>145.7</ele>
        <time>2017-12-04T23:11:18.815Z</time>
      </trkpt>
      <trkpt lat="46.75661" lon="-0.10657">
        <ele>145</ele>
        <time>2017-12-04T23:11:20.327Z</time>
      </trkpt>
      <trkpt lat="46.75674" lon="-0.10632">
        <ele>145</ele>
        <time>2017-12-04T23:11:20.758Z</time>
      </trkpt>
      <trkpt lat="46.75687" lon="-0.1058">
        <ele>145</ele>
        <time>2017-12-04T23:11:21.518Z</time>
      </trkpt>
      <trkpt lat="46.75693" lon="-0.10542">
        <ele>144.5</ele>
        <time>2017-12-04T23:11:22.053Z</time>
      </trkpt>
      <trkpt lat="46.75696" lon="-0.10499">
        <ele>144</ele>
        <time>2017-12-04T23:11:22.646Z</time>
      </trkpt>
      <trkpt lat="46.75701" lon="-0.10488">
        <ele>144</ele>
        <time>2017-12-04T23:11:22.827Z</time>
      </trkpt>
      <trkpt lat="46.75709" lon="-0.10468">
        <ele>144</ele>
        <time>2017-12-04T23:11:23.145Z</time>
      </trkpt>
      <trkpt lat="46.75734" lon="-0.10405">
        <ele>144</ele>
        <time>2017-12-04T23:11:24.145Z</time>
      </trkpt>
      <trkpt lat="46.75739" lon="-0.10372">
        <ele>144</ele>
        <time>2017-12-04T23:11:24.609Z</time>
      </trkpt>
      <trkpt lat="46.75748" lon="-0.10349">
        <ele>144</ele>
        <time>2017-12-04T23:11:24.973Z</time>
      </trkpt>
      <trkpt lat="46.75755" lon="-0.1032">
        <ele>143.6</ele>
        <time>2017-12-04T23:11:25.395Z</time>
      </trkpt>
      <trkpt lat="46.75764" lon="-0.1026">
        <ele>143</ele>
        <time>2017-12-04T23:11:26.238Z</time>
      </trkpt>
      <trkpt lat="46.75766" lon="-0.10236">
        <ele>143</ele>
        <time>2017-12-04T23:11:26.570Z</time>
      </trkpt>
      <trkpt lat="46.75762" lon="-0.10177">
        <ele>142.2</ele>
        <time>2017-12-04T23:11:27.384Z</time>
      </trkpt>
      <trkpt lat="46.75754" lon="-0.10115">
        <ele>142</ele>
        <time>2017-12-04T23:11:28.250Z</time>
      </trkpt>
      <trkpt lat="46.75759" lon="-0.10093">
        <ele>141.3</ele>
        <time>2017-12-04T23:11:28.568Z</time>
      </trkpt>
      <trkpt lat="46.75764" lon="-0.1008">
        <ele>141</ele>
        <time>2017-12-04T23:11:28.773Z</time>
      </trkpt>
      <trkpt lat="46.75769" lon="-0.1007">
        <ele>141</ele>
        <time>2017-12-04T23:11:28.943Z</time>
      </trkpt>
      <trkpt lat="46.75779" lon="-0.10068">
        <ele>141</ele>
        <time>2017-12-04T23:11:29.145Z</time>
      </trkpt>
      <trkpt lat="46.75805" lon="-0.10064">
        <ele>141</ele>
        <time>2017-12-04T23:11:29.669Z</time>
      </trkpt>
      <trkpt lat="46.75816" lon="-0.1006">
        <ele>140.7</ele>
        <time>2017-12-04T23:11:29.896Z</time>
      </trkpt>
      <trkpt lat="46.75825" lon="-0.10051">
        <ele>140.1</ele>
        <time>2017-12-04T23:11:30.115Z</time>
      </trkpt>
      <trkpt lat="46.7582" lon="-0.10035">
        <ele>139.7</ele>
        <time>2017-12-04T23:11:30.356Z</time>
      </trkpt>
      <trkpt lat="46.75801" lon="-0.09975">
        <ele>138.2</ele>
        <time>2017-12-04T23:11:31.263Z</time>
      </trkpt>
      <trkpt lat="46.75776" lon="-0.09882">
        <ele>134.5</ele>
        <time>2017-12-04T23:11:32.635Z</time>
      </trkpt>
      <trkpt lat="46.75771" lon="-0.09878">
        <ele>134.1</ele>
        <time>2017-12-04T23:11:32.749Z</time>
      </trkpt>
      <trkpt lat="46.75776" lon="-0.09882">
        <ele>134.5</ele>
        <time>2017-12-04T23:11:32.863Z</time>
      </trkpt>
      <trkpt lat="46.75789" lon="-0.09929">
        <ele>136.4</ele>
        <time>2017-12-04T23:11:33.559Z</time>
      </trkpt>
      <trkpt lat="46.75809" lon="-0.09998">
        <ele>138.9</ele>
        <time>2017-12-04T23:11:34.588Z</time>
      </trkpt>
      <trkpt lat="46.75825" lon="-0.10051">
        <ele>140.1</ele>
        <time>2017-12-04T23:11:35.383Z</time>
      </trkpt>
      <trkpt lat="46.75813" lon="-0.10062">
        <ele>140.8</ele>
        <time>2017-12-04T23:11:35.667Z</time>
      </trkpt>
      <trkpt lat="46.75769" lon="-0.1007">
        <ele>141</ele>
        <time>2017-12-04T23:11:36.556Z</time>
      </trkpt>
      <trkpt lat="46.75761" lon="-0.10086">
        <ele>141.1</ele>
        <time>2017-12-04T23:11:36.828Z</time>
      </trkpt>
      <trkpt lat="46.75754" lon="-0.10115">
        <ele>142</ele>
        <time>2017-12-04T23:11:37.250Z</time>
      </trkpt>
      <trkpt lat="46.75766" lon="-0.10229">
        <ele>143</ele>
        <time>2017-12-04T23:11:38.833Z</time>
      </trkpt>
      <trkpt lat="46.75763" lon="-0.10271">
        <ele>143</ele>
        <time>2017-12-04T23:11:39.413Z</time>
      </trkpt>
      <trkpt lat="46.7575" lon="-0.10344">
        <ele>144</ele>
        <time>2017-12-04T23:11:40.448Z</time>
      </trkpt>
      <trkpt lat="46.75741" lon="-0.10367">
        <ele>144</ele>
        <time>2017-12-04T23:11:40.812Z</time>
      </trkpt>
      <trkpt lat="46.75736" lon="-0.10385">
        <ele>144</ele>
        <time>2017-12-04T23:11:41.079Z</time>
      </trkpt>
      <trkpt lat="46.75734" lon="-0.10405">
        <ele>144</ele>
        <time>2017-12-04T23:11:41.356Z</time>
      </trkpt>
      <trkpt lat="46.75726" lon="-0.10429">
        <ele>144</ele>
        <time>2017-12-04T23:11:41.722Z</time>
      </trkpt>
      <trkpt lat="46.75722" lon="-0.10438">
        <ele>144</ele>
        <time>2017-12-04T23:11:41.869Z</time>
      </trkpt>
      <trkpt lat="46.75705" lon="-0.10478">
        <ele>144</ele>
        <time>2017-12-04T23:11:42.515Z</time>
      </trkpt>
      <trkpt lat="46.75696" lon="-0.10499">
        <ele>144</ele>
        <time>2017-12-04T23:11:42.855Z</time>
      </trkpt>
      <trkpt lat="46.75692" lon="-0.10549">
        <ele>144.8</ele>
        <time>2017-12-04T23:11:43.546Z</time>
      </trkpt>
      <trkpt lat="46.75678" lon="-0.10619">
        <ele>145</ele>
        <time>2017-12-04T23:11:44.547Z</time>
      </trkpt>
      <trkpt lat="46.7567" lon="-0.10641">
        <ele>145</ele>
        <time>2017-12-04T23:11:44.889Z</time>
      </trkpt>
      <trkpt lat="46.7563" lon="-0.1071">
        <ele>145</ele>
        <time>2017-12-04T23:11:46.130Z</time>
      </trkpt>
      <trkpt lat="46.75597" lon="-0.10772">
        <ele>146</ele>
        <time>2017-12-04T23:11:47.208Z</time>
      </trkpt>
      <trkpt lat="46.75584" lon="-0.1079">
        <ele>146</ele>
        <time>2017-12-04T23:11:47.567Z</time>
      </trkpt>
      <trkpt lat="46.75572" lon="-0.10801">
        <ele>146</ele>
        <time>2017-12-04T23:11:47.851Z</time>
      </trkpt>
      <trkpt lat="46.75531" lon="-0.10827">
        <ele>146</ele>
        <time>2017-12-04T23:11:48.747Z</time>
      </trkpt>
      <trkpt lat="46.75502" lon="-0.10848">
        <ele>147</ele>
        <time>2017-12-04T23:11:49.396Z</time>
      </trkpt>
      <trkpt lat="46.75483" lon="-0.10866">
        <ele>147.1</ele>
        <time>2017-12-04T23:11:49.850Z</time>
      </trkpt>
      <trkpt lat="46.75457" lon="-0.10898">
        <ele>148</ele>
        <time>2017-12-04T23:11:50.532Z</time>
      </trkpt>
      <trkpt lat="46.75402" lon="-0.10975">
        <ele>148</ele>
        <time>2017-12-04T23:11:52.059Z</time>
      </trkpt>
      <trkpt lat="46.75394" lon="-0.10993">
        <ele>148</ele>
        <time>2017-12-04T23:11:52.354Z</time>
      </trkpt>
      <trkpt lat="46.7539" lon="-0.11012">
        <ele>148</ele>
        <time>2017-12-04T23:11:52.627Z</time>
      </trkpt>
      <trkpt lat="46.75388" lon="-0.11004">
        <ele>148</ele>
        <time>2017-12-04T23:11:52.744Z</time>
      </trkpt>
      <trkpt lat="46.75389" lon="-0.11028">
        <ele>148</ele>
        <time>2017-12-04T23:11:53.074Z</time>
      </trkpt>
      <trkpt lat="46.75387" lon="-0.11045">
        <ele>148</ele>
        <time>2017-12-04T23:11:53.311Z</time>
      </trkpt>
      <trkpt lat="46.75379" lon="-0.11084">
        <ele>147.3</ele>
        <time>2017-12-04T23:11:53.870Z</time>
      </trkpt>
      <trkpt lat="46.75387" lon="-0.11045">
        <ele>148</ele>
        <time>2017-12-04T23:11:54.429Z</time>
      </trkpt>
      <trkpt lat="46.75389" lon="-0.11028">
        <ele>148</ele>
        <time>2017-12-04T23:11:54.666Z</time>
      </trkpt>
      <trkpt lat="46.75394" lon="-0.10993">
        <ele>148</ele>
        <time>2017-12-04T23:11:55.157Z</time>
      </trkpt>
      <trkpt lat="46.75402" lon="-0.10975">
        <ele>148</ele>
        <time>2017-12-04T23:11:55.452Z</time>
      </trkpt>
      <trkpt lat="46.75457" lon="-0.10898">
        <ele>148</ele>
        <time>2017-12-04T23:11:56.979Z</time>
      </trkpt>
      <trkpt lat="46.75471" lon="-0.10879">
        <ele>147.7</ele>
        <time>2017-12-04T23:11:57.362Z</time>
      </trkpt>
      <trkpt lat="46.75502" lon="-0.10848">
        <ele>147</ele>
        <time>2017-12-04T23:11:58.115Z</time>
      </trkpt>
      <trkpt lat="46.75531" lon="-0.10827">
        <ele>146</ele>
        <time>2017-12-04T23:11:58.764Z</time>
      </trkpt>
      <trkpt lat="46.75572" lon="-0.10801">
        <ele>146</ele>
        <time>2017-12-04T23:11:59.660Z</time>
      </trkpt>
      <trkpt lat="46.75584" lon="-0.1079">
        <ele>146</ele>
        <time>2017-12-04T23:11:59.944Z</time>
      </trkpt>
      <trkpt lat="46.75597" lon="-0.10772">
        <ele>146</ele>
        <time>2017-12-04T23:12:00.303Z</time>
      </trkpt>
      <trkpt lat="46.7563" lon="-0.1071">
        <ele>145</ele>
        <time>2017-12-04T23:12:01.381Z</time>
      </trkpt>
      <trkpt lat="46.75665" lon="-0.1065">
        <ele>145</ele>
        <time>2017-12-04T23:12:02.463Z</time>
      </trkpt>
      <trkpt lat="46.75674" lon="-0.10632">
        <ele>145</ele>
        <time>2017-12-04T23:12:02.769Z</time>
      </trkpt>
      <trkpt lat="46.75687" lon="-0.1058">
        <ele>145</ele>
        <time>2017-12-04T23:12:03.529Z</time>
      </trkpt>
      <trkpt lat="46.75693" lon="-0.10542">
        <ele>144.5</ele>
        <time>2017-12-04T23:12:04.064Z</time>
      </trkpt>
      <trkpt lat="46.75696" lon="-0.10499">
        <ele>144</ele>
        <time>2017-12-04T23:12:04.657Z</time>
      </trkpt>
      <trkpt lat="46.75701" lon="-0.10488">
        <ele>144</ele>
        <time>2017-12-04T23:12:04.838Z</time>
      </trkpt>
      <trkpt lat="46.75709" lon="-0.10468">
        <ele>144</ele>
        <time>2017-12-04T23:12:05.156Z</time>
      </trkpt>
      <trkpt lat="46.7572" lon="-0.10442">
        <ele>144</ele>
        <time>2017-12-04T23:12:05.576Z</time>
      </trkpt>
      <trkpt lat="46.75734" lon="-0.10405">
        <ele>144</ele>
        <time>2017-12-04T23:12:06.156Z</time>
      </trkpt>
      <trkpt lat="46.75737" lon="-0.10381">
        <ele>144</ele>
        <time>2017-12-04T23:12:06.491Z</time>
      </trkpt>
      <trkpt lat="46.75743" lon="-0.10362">
        <ele>144</ele>
        <time>2017-12-04T23:12:06.778Z</time>
      </trkpt>
      <trkpt lat="46.75752" lon="-0.10337">
        <ele>144</ele>
        <time>2017-12-04T23:12:07.166Z</time>
      </trkpt>
      <trkpt lat="46.75764" lon="-0.1026">
        <ele>143</ele>
        <time>2017-12-04T23:12:08.250Z</time>
      </trkpt>
      <trkpt lat="46.75766" lon="-0.10218">
        <ele>142.9</ele>
        <time>2017-12-04T23:12:08.828Z</time>
      </trkpt>
      <trkpt lat="46.75762" lon="-0.10177">
        <ele>142.2</ele>
        <time>2017-12-04T23:12:09.397Z</time>
      </trkpt>
      <trkpt lat="46.75754" lon="-0.10115">
        <ele>142</ele>
        <time>2017-12-04T23:12:10.263Z</time>
      </trkpt>
      <trkpt lat="46.75759" lon="-0.10093">
        <ele>141.3</ele>
        <time>2017-12-04T23:12:10.581Z</time>
      </trkpt>
      <trkpt lat="46.75764" lon="-0.1008">
        <ele>141</ele>
        <time>2017-12-04T23:12:10.786Z</time>
      </trkpt>
      <trkpt lat="46.75769" lon="-0.1007">
        <ele>141</ele>
        <time>2017-12-04T23:12:10.956Z</time>
      </trkpt>
      <trkpt lat="46.75779" lon="-0.10068">
        <ele>141</ele>
        <time>2017-12-04T23:12:11.158Z</time>
      </trkpt>
      <trkpt lat="46.75805" lon="-0.10064">
        <ele>141</ele>
        <time>2017-12-04T23:12:11.682Z</time>
      </trkpt>
      <trkpt lat="46.75816" lon="-0.1006">
        <ele>140.7</ele>
        <time>2017-12-04T23:12:11.909Z</time>
      </trkpt>
      <trkpt lat="46.75825" lon="-0.10051">
        <ele>140.1</ele>
        <time>2017-12-04T23:12:12.128Z</time>
      </trkpt>
      <trkpt lat="46.7582" lon="-0.10035">
        <ele>139.7</ele>
        <time>2017-12-04T23:12:12.369Z</time>
      </trkpt>
      <trkpt lat="46.75801" lon="-0.09975">
        <ele>138.2</ele>
        <time>2017-12-04T23:12:13.276Z</time>
      </trkpt>
      <trkpt lat="46.75776" lon="-0.09882">
        <ele>134.5</ele>
        <time>2017-12-04T23:12:14.648Z</time>
      </trkpt>
      <trkpt lat="46.75771" lon="-0.09857">
        <ele>132.3</ele>
        <time>2017-12-04T23:12:15.006Z</time>
      </trkpt>
      <trkpt lat="46.75769" lon="-0.09839">
        <ele>130.3</ele>
        <time>2017-12-04T23:12:15.256Z</time>
      </trkpt>
      <trkpt lat="46.75772" lon="-0.09819">
        <ele>128.9</ele>
        <time>2017-12-04T23:12:15.537Z</time>
      </trkpt>
      <trkpt lat="46.75774" lon="-0.09809">
        <ele>128.2</ele>
        <time>2017-12-04T23:12:15.680Z</time>
      </trkpt>
      <trkpt lat="46.75784" lon="-0.09794">
        <ele>127.6</ele>
        <time>2017-12-04T23:12:15.967Z</time>
      </trkpt>
      <trkpt lat="46.75807" lon="-0.09757">
        <ele>126.9</ele>
        <time>2017-12-04T23:12:16.653Z</time>
      </trkpt>
      <trkpt lat="46.75819" lon="-0.09747">
        <ele>126.7</ele>
        <time>2017-12-04T23:12:16.930Z</time>
      </trkpt>
      <trkpt lat="46.75835" lon="-0.09737">
        <ele>126.9</ele>
        <time>2017-12-04T23:12:17.279Z</time>
      </trkpt>
      <trkpt lat="46.7584" lon="-0.09731">
        <ele>127.1</ele>
        <time>2017-12-04T23:12:17.409Z</time>
      </trkpt>
      <trkpt lat="46.75846" lon="-0.09718">
        <ele>127.9</ele>
        <time>2017-12-04T23:12:17.624Z</time>
      </trkpt>
      <trkpt lat="46.75856" lon="-0.09678">
        <ele>131.2</ele>
        <time>2017-12-04T23:12:18.209Z</time>
      </trkpt>
      <trkpt lat="46.75861" lon="-0.09653">
        <ele>132.5</ele>
        <time>2017-12-04T23:12:18.567Z</time>
      </trkpt>
      <trkpt lat="46.75868" lon="-0.09636">
        <ele>133.1</ele>
        <time>2017-12-04T23:12:18.839Z</time>
      </trkpt>
      <trkpt lat="46.75885" lon="-0.09587">
        <ele>134</ele>
        <time>2017-12-04T23:12:19.593Z</time>
      </trkpt>
      <trkpt lat="46.75891" lon="-0.09555">
        <ele>134</ele>
        <time>2017-12-04T23:12:20.048Z</time>
      </trkpt>
      <trkpt lat="46.75901" lon="-0.09446">
        <ele>130.1</ele>
        <time>2017-12-04T23:12:21.558Z</time>
      </trkpt>
      <trkpt lat="46.75899" lon="-0.09431">
        <ele>128.5</ele>
        <time>2017-12-04T23:12:21.768Z</time>
      </trkpt>
      <trkpt lat="46.75888" lon="-0.09409">
        <ele>125.9</ele>
        <time>2017-12-04T23:12:22.142Z</time>
      </trkpt>
      <trkpt lat="46.75849" lon="-0.09346">
        <ele>119.9</ele>
        <time>2017-12-04T23:12:23.308Z</time>
      </trkpt>
      <trkpt lat="46.75812" lon="-0.09297">
        <ele>118.3</ele>
        <time>2017-12-04T23:12:24.309Z</time>
      </trkpt>
      <trkpt lat="46.75803" lon="-0.0928">
        <ele>117.6</ele>
        <time>2017-12-04T23:12:24.604Z</time>
      </trkpt>
      <trkpt lat="46.758" lon="-0.09268">
        <ele>117</ele>
        <time>2017-12-04T23:12:24.779Z</time>
      </trkpt>
      <trkpt lat="46.75802" lon="-0.09253">
        <ele>115.6</ele>
        <time>2017-12-04T23:12:24.989Z</time>
      </trkpt>
      <trkpt lat="46.75813" lon="-0.09222">
        <ele>112.2</ele>
        <time>2017-12-04T23:12:25.468Z</time>
      </trkpt>
      <trkpt lat="46.75819" lon="-0.09202">
        <ele>111.2</ele>
        <time>2017-12-04T23:12:25.768Z</time>
      </trkpt>
      <trkpt lat="46.75825" lon="-0.09172">
        <ele>109.6</ele>
        <time>2017-12-04T23:12:26.197Z</time>
      </trkpt>
      <trkpt lat="46.75825" lon="-0.09162">
        <ele>109.5</ele>
        <time>2017-12-04T23:12:26.334Z</time>
      </trkpt>
      <trkpt lat="46.75824" lon="-0.0915">
        <ele>109.5</ele>
        <time>2017-12-04T23:12:26.500Z</time>
      </trkpt>
      <trkpt lat="46.75832" lon="-0.09134">
        <ele>109.2</ele>
        <time>2017-12-04T23:12:26.772Z</time>
      </trkpt>
      <trkpt lat="46.75818" lon="-0.09143">
        <ele>109.7</ele>
        <time>2017-12-04T23:12:27.079Z</time>
      </trkpt>
      <trkpt lat="46.758" lon="-0.09146">
        <ele>110.9</ele>
        <time>2017-12-04T23:12:27.442Z</time>
      </trkpt>
      <trkpt lat="46.75757" lon="-0.09145">
        <ele>112.9</ele>
        <time>2017-12-04T23:12:28.304Z</time>
      </trkpt>
      <trkpt lat="46.75685" lon="-0.09136">
        <ele>117.3</ele>
        <time>2017-12-04T23:12:29.752Z</time>
      </trkpt>
      <trkpt lat="46.75667" lon="-0.09137">
        <ele>118.8</ele>
        <time>2017-12-04T23:12:30.113Z</time>
      </trkpt>
      <trkpt lat="46.75659" lon="-0.09141">
        <ele>119.7</ele>
        <time>2017-12-04T23:12:30.282Z</time>
      </trkpt>
      <trkpt lat="46.75645" lon="-0.09155">
        <ele>121.7</ele>
        <time>2017-12-04T23:12:30.622Z</time>
      </trkpt>
      <trkpt lat="46.75567" lon="-0.09106">
        <ele>123.9</ele>
        <time>2017-12-04T23:12:32.324Z</time>
      </trkpt>
      <trkpt lat="46.75551" lon="-0.09099">
        <ele>125</ele>
        <time>2017-12-04T23:12:32.659Z</time>
      </trkpt>
      <trkpt lat="46.7554" lon="-0.09099">
        <ele>125.9</ele>
        <time>2017-12-04T23:12:32.879Z</time>
      </trkpt>
      <trkpt lat="46.7553" lon="-0.09102">
        <ele>126.8</ele>
        <time>2017-12-04T23:12:33.084Z</time>
      </trkpt>
      <trkpt lat="46.75501" lon="-0.09116">
        <ele>129.1</ele>
        <time>2017-12-04T23:12:33.696Z</time>
      </trkpt>
      <trkpt lat="46.75484" lon="-0.09118">
        <ele>130.4</ele>
        <time>2017-12-04T23:12:34.038Z</time>
      </trkpt>
      <trkpt lat="46.75466" lon="-0.09121">
        <ele>131.7</ele>
        <time>2017-12-04T23:12:34.401Z</time>
      </trkpt>
      <trkpt lat="46.75453" lon="-0.09127">
        <ele>132.7</ele>
        <time>2017-12-04T23:12:34.674Z</time>
      </trkpt>
      <trkpt lat="46.75376" lon="-0.09157">
        <ele>138.1</ele>
        <time>2017-12-04T23:12:36.271Z</time>
      </trkpt>
      <trkpt lat="46.75358" lon="-0.0917">
        <ele>139.2</ele>
        <time>2017-12-04T23:12:36.673Z</time>
      </trkpt>
      <trkpt lat="46.75333" lon="-0.09201">
        <ele>141</ele>
        <time>2017-12-04T23:12:37.330Z</time>
      </trkpt>
      <trkpt lat="46.75299" lon="-0.09251">
        <ele>142.3</ele>
        <time>2017-12-04T23:12:38.297Z</time>
      </trkpt>
      <trkpt lat="46.7527" lon="-0.09253">
        <ele>143</ele>
        <time>2017-12-04T23:12:38.879Z</time>
      </trkpt>
      <trkpt lat="46.75229" lon="-0.0926">
        <ele>143.3</ele>
        <time>2017-12-04T23:12:39.706Z</time>
      </trkpt>
      <trkpt lat="46.7519" lon="-0.09271">
        <ele>143</ele>
        <time>2017-12-04T23:12:40.502Z</time>
      </trkpt>
      <trkpt lat="46.75188" lon="-0.09284">
        <ele>143.2</ele>
        <time>2017-12-04T23:12:40.685Z</time>
      </trkpt>
      <trkpt lat="46.75181" lon="-0.09301">
        <ele>143.8</ele>
        <time>2017-12-04T23:12:40.957Z</time>
      </trkpt>
      <trkpt lat="46.75154" lon="-0.09356">
        <ele>144.9</ele>
        <time>2017-12-04T23:12:41.886Z</time>
      </trkpt>
      <trkpt lat="46.7513" lon="-0.09408">
        <ele>145</ele>
        <time>2017-12-04T23:12:42.747Z</time>
      </trkpt>
      <trkpt lat="46.75104" lon="-0.09465">
        <ele>146</ele>
        <time>2017-12-04T23:12:43.687Z</time>
      </trkpt>
      <trkpt lat="46.75049" lon="-0.09592">
        <ele>147</ele>
        <time>2017-12-04T23:12:45.750Z</time>
      </trkpt>
      <trkpt lat="46.74997" lon="-0.09699">
        <ele>147</ele>
        <time>2017-12-04T23:12:47.551Z</time>
      </trkpt>
      <trkpt lat="46.74975" lon="-0.09749">
        <ele>147</ele>
        <time>2017-12-04T23:12:48.367Z</time>
      </trkpt>
      <trkpt lat="46.74962" lon="-0.09772">
        <ele>147.3</ele>
        <time>2017-12-04T23:12:48.776Z</time>
      </trkpt>
      <trkpt lat="46.74922" lon="-0.09764">
        <ele>147.9</ele>
        <time>2017-12-04T23:12:49.585Z</time>
      </trkpt>
      <trkpt lat="46.74907" lon="-0.09728">
        <ele>147.1</ele>
        <time>2017-12-04T23:12:50.174Z</time>
      </trkpt>
      <trkpt lat="46.74902" lon="-0.09683">
        <ele>147</ele>
        <time>2017-12-04T23:12:50.799Z</time>
      </trkpt>
      <trkpt lat="46.74879" lon="-0.0963">
        <ele>146.5</ele>
        <time>2017-12-04T23:12:51.653Z</time>
      </trkpt>
      <trkpt lat="46.7485" lon="-0.09586">
        <ele>144.7</ele>
        <time>2017-12-04T23:12:52.497Z</time>
      </trkpt>
      <trkpt lat="46.74831" lon="-0.09555">
        <ele>142.9</ele>
        <time>2017-12-04T23:12:53.076Z</time>
      </trkpt>
      <trkpt lat="46.74792" lon="-0.09519">
        <ele>138.4</ele>
        <time>2017-12-04T23:12:53.996Z</time>
      </trkpt>
      <trkpt lat="46.74788" lon="-0.09431">
        <ele>132</ele>
        <time>2017-12-04T23:12:55.214Z</time>
      </trkpt>
      <trkpt lat="46.74784" lon="-0.09424">
        <ele>131.5</ele>
        <time>2017-12-04T23:12:55.333Z</time>
      </trkpt>
      <trkpt lat="46.74787" lon="-0.09395">
        <ele>131.1</ele>
        <time>2017-12-04T23:12:55.736Z</time>
      </trkpt>
      <trkpt lat="46.74785" lon="-0.0938">
        <ele>131.2</ele>
        <time>2017-12-04T23:12:55.946Z</time>
      </trkpt>
      <trkpt lat="46.74779" lon="-0.0935">
        <ele>131.5</ele>
        <time>2017-12-04T23:12:56.375Z</time>
      </trkpt>
      <trkpt lat="46.7476" lon="-0.0932">
        <ele>133.6</ele>
        <time>2017-12-04T23:12:56.936Z</time>
      </trkpt>
      <trkpt lat="46.74729" lon="-0.09279">
        <ele>136.5</ele>
        <time>2017-12-04T23:12:57.774Z</time>
      </trkpt>
      <trkpt lat="46.74728" lon="-0.09261">
        <ele>136.6</ele>
        <time>2017-12-04T23:12:58.022Z</time>
      </trkpt>
      <trkpt lat="46.74731" lon="-0.0923">
        <ele>135.6</ele>
        <time>2017-12-04T23:12:58.452Z</time>
      </trkpt>
      <trkpt lat="46.7473" lon="-0.09218">
        <ele>135.2</ele>
        <time>2017-12-04T23:12:58.618Z</time>
      </trkpt>
      <trkpt lat="46.74728" lon="-0.09203">
        <ele>134.5</ele>
        <time>2017-12-04T23:12:58.828Z</time>
      </trkpt>
      <trkpt lat="46.74716" lon="-0.09165">
        <ele>132.9</ele>
        <time>2017-12-04T23:12:59.403Z</time>
      </trkpt>
      <trkpt lat="46.7471" lon="-0.09142">
        <ele>132.1</ele>
        <time>2017-12-04T23:12:59.741Z</time>
      </trkpt>
      <trkpt lat="46.74711" lon="-0.09125">
        <ele>130.3</ele>
        <time>2017-12-04T23:12:59.975Z</time>
      </trkpt>
      <trkpt lat="46.74669" lon="-0.0915">
        <ele>131.7</ele>
        <time>2017-12-04T23:13:00.884Z</time>
      </trkpt>
      <trkpt lat="46.74641" lon="-0.09166">
        <ele>134.8</ele>
        <time>2017-12-04T23:13:01.487Z</time>
      </trkpt>
      <trkpt lat="46.74628" lon="-0.09171">
        <ele>135.4</ele>
        <time>2017-12-04T23:13:01.756Z</time>
      </trkpt>
      <trkpt lat="46.74614" lon="-0.09176">
        <ele>136</ele>
        <time>2017-12-04T23:13:02.045Z</time>
      </trkpt>
      <trkpt lat="46.74608" lon="-0.0918">
        <ele>136.6</ele>
        <time>2017-12-04T23:13:02.177Z</time>
      </trkpt>
      <trkpt lat="46.74575" lon="-0.0922">
        <ele>140.2</ele>
        <time>2017-12-04T23:13:03.037Z</time>
      </trkpt>
      <trkpt lat="46.74523" lon="-0.09285">
        <ele>144.4</ele>
        <time>2017-12-04T23:13:04.409Z</time>
      </trkpt>
      <trkpt lat="46.74506" lon="-0.09309">
        <ele>145.9</ele>
        <time>2017-12-04T23:13:04.883Z</time>
      </trkpt>
      <trkpt lat="46.74482" lon="-0.09341">
        <ele>146.5</ele>
        <time>2017-12-04T23:13:05.534Z</time>
      </trkpt>
      <trkpt lat="46.74471" lon="-0.09354">
        <ele>146.7</ele>
        <time>2017-12-04T23:13:05.818Z</time>
      </trkpt>
      <trkpt lat="46.74434" lon="-0.09383">
        <ele>147</ele>
        <time>2017-12-04T23:13:06.660Z</time>
      </trkpt>
      <trkpt lat="46.74416" lon="-0.09397">
        <ele>147</ele>
        <time>2017-12-04T23:13:07.069Z</time>
      </trkpt>
      <trkpt lat="46.74404" lon="-0.09408">
        <ele>147</ele>
        <time>2017-12-04T23:13:07.353Z</time>
      </trkpt>
      <trkpt lat="46.74396" lon="-0.09422">
        <ele>147</ele>
        <time>2017-12-04T23:13:07.603Z</time>
      </trkpt>
      <trkpt lat="46.74383" lon="-0.09449">
        <ele>147</ele>
        <time>2017-12-04T23:13:08.056Z</time>
      </trkpt>
      <trkpt lat="46.74359" lon="-0.09502">
        <ele>147.9</ele>
        <time>2017-12-04T23:13:08.928Z</time>
      </trkpt>
      <trkpt lat="46.74342" lon="-0.09534">
        <ele>147.3</ele>
        <time>2017-12-04T23:13:09.484Z</time>
      </trkpt>
      <trkpt lat="46.74332" lon="-0.09535">
        <ele>147</ele>
        <time>2017-12-04T23:13:09.685Z</time>
      </trkpt>
      <trkpt lat="46.74286" lon="-0.09546">
        <ele>146.3</ele>
        <time>2017-12-04T23:13:10.619Z</time>
      </trkpt>
      <trkpt lat="46.74272" lon="-0.0953">
        <ele>145.6</ele>
        <time>2017-12-04T23:13:10.975Z</time>
      </trkpt>
      <trkpt lat="46.74261" lon="-0.09515">
        <ele>144.8</ele>
        <time>2017-12-04T23:13:11.277Z</time>
      </trkpt>
      <trkpt lat="46.74239" lon="-0.09469">
        <ele>141.6</ele>
        <time>2017-12-04T23:13:12.047Z</time>
      </trkpt>
      <trkpt lat="46.74213" lon="-0.09415">
        <ele>137.7</ele>
        <time>2017-12-04T23:13:12.953Z</time>
      </trkpt>
      <trkpt lat="46.74202" lon="-0.09398">
        <ele>137.8</ele>
        <time>2017-12-04T23:13:13.274Z</time>
      </trkpt>
      <trkpt lat="46.7418" lon="-0.09362">
        <ele>137.6</ele>
        <time>2017-12-04T23:13:13.936Z</time>
      </trkpt>
      <trkpt lat="46.74172" lon="-0.09344">
        <ele>137.7</ele>
        <time>2017-12-04T23:13:14.231Z</time>
      </trkpt>
      <trkpt lat="46.74165" lon="-0.09308">
        <ele>137.2</ele>
        <time>2017-12-04T23:13:14.745Z</time>
      </trkpt>
      <trkpt lat="46.7416" lon="-0.09247">
        <ele>139.3</ele>
        <time>2017-12-04T23:13:15.589Z</time>
      </trkpt>
      <trkpt lat="46.74162" lon="-0.09211">
        <ele>139.7</ele>
        <time>2017-12-04T23:13:16.085Z</time>
      </trkpt>
      <trkpt lat="46.74165" lon="-0.09194">
        <ele>140.1</ele>
        <time>2017-12-04T23:13:16.326Z</time>
      </trkpt>
      <trkpt lat="46.74176" lon="-0.09168">
        <ele>139.6</ele>
        <time>2017-12-04T23:13:16.746Z</time>
      </trkpt>
      <trkpt lat="46.74193" lon="-0.09115">
        <ele>140</ele>
        <time>2017-12-04T23:13:17.550Z</time>
      </trkpt>
      <trkpt lat="46.74203" lon="-0.09088">
        <ele>139.3</ele>
        <time>2017-12-04T23:13:17.971Z</time>
      </trkpt>
      <trkpt lat="46.74215" lon="-0.09069">
        <ele>138.7</ele>
        <time>2017-12-04T23:13:18.326Z</time>
      </trkpt>
      <trkpt lat="46.74233" lon="-0.09033">
        <ele>136.1</ele>
        <time>2017-12-04T23:13:18.938Z</time>
      </trkpt>
      <trkpt lat="46.7424" lon="-0.09011">
        <ele>135.4</ele>
        <time>2017-12-04T23:13:19.271Z</time>
      </trkpt>
      <trkpt lat="46.74249" lon="-0.08962">
        <ele>135.5</ele>
        <time>2017-12-04T23:13:19.968Z</time>
      </trkpt>
      <trkpt lat="46.74278" lon="-0.08885">
        <ele>135.3</ele>
        <time>2017-12-04T23:13:21.175Z</time>
      </trkpt>
      <trkpt lat="46.74294" lon="-0.08852">
        <ele>135.8</ele>
        <time>2017-12-04T23:13:21.730Z</time>
      </trkpt>
      <trkpt lat="46.74306" lon="-0.08837">
        <ele>135.7</ele>
        <time>2017-12-04T23:13:22.047Z</time>
      </trkpt>
      <trkpt lat="46.74319" lon="-0.08827">
        <ele>134.9</ele>
        <time>2017-12-04T23:13:22.341Z</time>
      </trkpt>
      <trkpt lat="46.7434" lon="-0.08816">
        <ele>133.4</ele>
        <time>2017-12-04T23:13:22.788Z</time>
      </trkpt>
      <trkpt lat="46.7435" lon="-0.08816">
        <ele>132.2</ele>
        <time>2017-12-04T23:13:22.988Z</time>
      </trkpt>
      <trkpt lat="46.7436" lon="-0.08809">
        <ele>131.8</ele>
        <time>2017-12-04T23:13:23.210Z</time>
      </trkpt>
      <trkpt lat="46.74369" lon="-0.08798">
        <ele>131.7</ele>
        <time>2017-12-04T23:13:23.445Z</time>
      </trkpt>
      <trkpt lat="46.7438" lon="-0.08779">
        <ele>131.9</ele>
        <time>2017-12-04T23:13:23.787Z</time>
      </trkpt>
      <trkpt lat="46.74394" lon="-0.08734">
        <ele>133.2</ele>
        <time>2017-12-04T23:13:24.466Z</time>
      </trkpt>
      <trkpt lat="46.74394" lon="-0.08713">
        <ele>133.7</ele>
        <time>2017-12-04T23:13:24.754Z</time>
      </trkpt>
      <trkpt lat="46.74388" lon="-0.08706">
        <ele>134</ele>
        <time>2017-12-04T23:13:24.908Z</time>
      </trkpt>
      <trkpt lat="46.74374" lon="-0.08676">
        <ele>134.2</ele>
        <time>2017-12-04T23:13:25.406Z</time>
      </trkpt>
      <trkpt lat="46.74367" lon="-0.08653">
        <ele>133.9</ele>
        <time>2017-12-04T23:13:25.752Z</time>
      </trkpt>
      <trkpt lat="46.74366" lon="-0.08645">
        <ele>133.9</ele>
        <time>2017-12-04T23:13:25.864Z</time>
      </trkpt>
      <trkpt lat="46.74351" lon="-0.08644">
        <ele>134.1</ele>
        <time>2017-12-04T23:13:26.165Z</time>
      </trkpt>
      <trkpt lat="46.7433" lon="-0.08641">
        <ele>134.2</ele>
        <time>2017-12-04T23:13:26.588Z</time>
      </trkpt>
      <trkpt lat="46.74313" lon="-0.08642">
        <ele>134.8</ele>
        <time>2017-12-04T23:13:26.929Z</time>
      </trkpt>
      <trkpt lat="46.74272" lon="-0.08652">
        <ele>136.2</ele>
        <time>2017-12-04T23:13:27.762Z</time>
      </trkpt>
      <trkpt lat="46.74255" lon="-0.08658">
        <ele>137.2</ele>
        <time>2017-12-04T23:13:28.112Z</time>
      </trkpt>
      <trkpt lat="46.74254" lon="-0.08641">
        <ele>136</ele>
        <time>2017-12-04T23:13:28.346Z</time>
      </trkpt>
      <trkpt lat="46.74258" lon="-0.08609">
        <ele>133.5</ele>
        <time>2017-12-04T23:13:28.793Z</time>
      </trkpt>
      <trkpt lat="46.7426" lon="-0.0859">
        <ele>131.1</ele>
        <time>2017-12-04T23:13:29.057Z</time>
      </trkpt>
      <trkpt lat="46.74213" lon="-0.08585">
        <ele>132.8</ele>
        <time>2017-12-04T23:13:30.001Z</time>
      </trkpt>
      <trkpt lat="46.74187" lon="-0.08577">
        <ele>133.6</ele>
        <time>2017-12-04T23:13:30.533Z</time>
      </trkpt>
      <trkpt lat="46.7417" lon="-0.08569">
        <ele>133.8</ele>
        <time>2017-12-04T23:13:30.891Z</time>
      </trkpt>
      <trkpt lat="46.74136" lon="-0.08542">
        <ele>134.2</ele>
        <time>2017-12-04T23:13:31.667Z</time>
      </trkpt>
      <trkpt lat="46.74111" lon="-0.08511">
        <ele>133.4</ele>
        <time>2017-12-04T23:13:32.324Z</time>
      </trkpt>
      <trkpt lat="46.74087" lon="-0.08459">
        <ele>132.5</ele>
        <time>2017-12-04T23:13:33.185Z</time>
      </trkpt>
      <trkpt lat="46.74068" lon="-0.08416">
        <ele>131</ele>
        <time>2017-12-04T23:13:33.888Z</time>
      </trkpt>
      <trkpt lat="46.74056" lon="-0.084">
        <ele>130.4</ele>
        <time>2017-12-04T23:13:34.214Z</time>
      </trkpt>
      <trkpt lat="46.74044" lon="-0.08392">
        <ele>130.1</ele>
        <time>2017-12-04T23:13:34.478Z</time>
      </trkpt>
      <trkpt lat="46.74041" lon="-0.08384">
        <ele>130</ele>
        <time>2017-12-04T23:13:34.603Z</time>
      </trkpt>
      <trkpt lat="46.74046" lon="-0.0837">
        <ele>129.8</ele>
        <time>2017-12-04T23:13:34.820Z</time>
      </trkpt>
      <trkpt lat="46.74054" lon="-0.08349">
        <ele>129.5</ele>
        <time>2017-12-04T23:13:35.150Z</time>
      </trkpt>
      <trkpt lat="46.74066" lon="-0.08302">
        <ele>130.4</ele>
        <time>2017-12-04T23:13:35.839Z</time>
      </trkpt>
      <trkpt lat="46.74069" lon="-0.08279">
        <ele>131</ele>
        <time>2017-12-04T23:13:36.161Z</time>
      </trkpt>
      <trkpt lat="46.74059" lon="-0.08205">
        <ele>136.2</ele>
        <time>2017-12-04T23:13:37.197Z</time>
      </trkpt>
      <trkpt lat="46.74049" lon="-0.08176">
        <ele>137.5</ele>
        <time>2017-12-04T23:13:37.643Z</time>
      </trkpt>
      <trkpt lat="46.74043" lon="-0.08169">
        <ele>137.9</ele>
        <time>2017-12-04T23:13:37.797Z</time>
      </trkpt>
      <trkpt lat="46.74026" lon="-0.0815">
        <ele>139.1</ele>
        <time>2017-12-04T23:13:38.226Z</time>
      </trkpt>
      <trkpt lat="46.7399" lon="-0.08101">
        <ele>140.2</ele>
        <time>2017-12-04T23:13:39.213Z</time>
      </trkpt>
      <trkpt lat="46.73981" lon="-0.08091">
        <ele>140.2</ele>
        <time>2017-12-04T23:13:39.440Z</time>
      </trkpt>
      <trkpt lat="46.7397" lon="-0.08086">
        <ele>140.1</ele>
        <time>2017-12-04T23:13:39.671Z</time>
      </trkpt>
      <trkpt lat="46.73949" lon="-0.08082">
        <ele>139.9</ele>
        <time>2017-12-04T23:13:40.095Z</time>
      </trkpt>
      <trkpt lat="46.73914" lon="-0.08079">
        <ele>139.3</ele>
        <time>2017-12-04T23:13:40.798Z</time>
      </trkpt>
      <trkpt lat="46.73907" lon="-0.08077">
        <ele>138.7</ele>
        <time>2017-12-04T23:13:40.941Z</time>
      </trkpt>
      <trkpt lat="46.73902" lon="-0.08073">
        <ele>138</ele>
        <time>2017-12-04T23:13:41.055Z</time>
      </trkpt>
      <trkpt lat="46.73894" lon="-0.08069">
        <ele>137.1</ele>
        <time>2017-12-04T23:13:41.224Z</time>
      </trkpt>
      <trkpt lat="46.73882" lon="-0.08068">
        <ele>136.9</ele>
        <time>2017-12-04T23:13:41.465Z</time>
      </trkpt>
      <trkpt lat="46.73875" lon="-0.08068">
        <ele>137.1</ele>
        <time>2017-12-04T23:13:41.605Z</time>
      </trkpt>
      <trkpt lat="46.7387" lon="-0.0806">
        <ele>136.2</ele>
        <time>2017-12-04T23:13:41.754Z</time>
      </trkpt>
      <trkpt lat="46.7387" lon="-0.08061">
        <ele>136.3</ele>
        <time>2017-12-04T23:13:41.768Z</time>
      </trkpt>
      <trkpt lat="46.73857" lon="-0.08043">
        <ele>134.6</ele>
        <time>2017-12-04T23:13:42.127Z</time>
      </trkpt>
      <trkpt lat="46.73836" lon="-0.08026">
        <ele>132.8</ele>
        <time>2017-12-04T23:13:42.608Z</time>
      </trkpt>
      <trkpt lat="46.7382" lon="-0.08012">
        <ele>132</ele>
        <time>2017-12-04T23:13:42.982Z</time>
      </trkpt>
      <trkpt lat="46.73808" lon="-0.07991">
        <ele>130.9</ele>
        <time>2017-12-04T23:13:43.358Z</time>
      </trkpt>
      <trkpt lat="46.73797" lon="-0.07963">
        <ele>128.6</ele>
        <time>2017-12-04T23:13:43.801Z</time>
      </trkpt>
      <trkpt lat="46.73779" lon="-0.07901">
        <ele>124.8</ele>
        <time>2017-12-04T23:13:44.726Z</time>
      </trkpt>
      <trkpt lat="46.73762" lon="-0.07813">
        <ele>124.7</ele>
        <time>2017-12-04T23:13:45.982Z</time>
      </trkpt>
      <trkpt lat="46.7376" lon="-0.0779">
        <ele>125.5</ele>
        <time>2017-12-04T23:13:46.300Z</time>
      </trkpt>
      <trkpt lat="46.73761" lon="-0.07733">
        <ele>126.2</ele>
        <time>2017-12-04T23:13:47.083Z</time>
      </trkpt>
      <trkpt lat="46.73761" lon="-0.07689">
        <ele>125.2</ele>
        <time>2017-12-04T23:13:47.687Z</time>
      </trkpt>
      <trkpt lat="46.73755" lon="-0.0766">
        <ele>125.6</ele>
        <time>2017-12-04T23:13:48.103Z</time>
      </trkpt>
      <trkpt lat="46.73724" lon="-0.07589">
        <ele>126.6</ele>
        <time>2017-12-04T23:13:49.259Z</time>
      </trkpt>
      <trkpt lat="46.73702" lon="-0.07619">
        <ele>127</ele>
        <time>2017-12-04T23:13:49.862Z</time>
      </trkpt>
      <trkpt lat="46.73684" lon="-0.07638">
        <ele>126.8</ele>
        <time>2017-12-04T23:13:50.307Z</time>
      </trkpt>
      <trkpt lat="46.73675" lon="-0.07645">
        <ele>127.5</ele>
        <time>2017-12-04T23:13:50.511Z</time>
      </trkpt>
      <trkpt lat="46.73663" lon="-0.07647">
        <ele>128.2</ele>
        <time>2017-12-04T23:13:50.753Z</time>
      </trkpt>
      <trkpt lat="46.73624" lon="-0.07671">
        <ele>130.1</ele>
        <time>2017-12-04T23:13:51.601Z</time>
      </trkpt>
      <trkpt lat="46.73601" lon="-0.07689">
        <ele>131.3</ele>
        <time>2017-12-04T23:13:52.124Z</time>
      </trkpt>
      <trkpt lat="46.73583" lon="-0.07697">
        <ele>132.9</ele>
        <time>2017-12-04T23:13:52.501Z</time>
      </trkpt>
      <trkpt lat="46.73576" lon="-0.07705">
        <ele>133.1</ele>
        <time>2017-12-04T23:13:52.679Z</time>
      </trkpt>
      <trkpt lat="46.73535" lon="-0.07765">
        <ele>133.9</ele>
        <time>2017-12-04T23:13:53.843Z</time>
      </trkpt>
      <trkpt lat="46.73534" lon="-0.07766">
        <ele>133.9</ele>
        <time>2017-12-04T23:13:53.867Z</time>
      </trkpt>
      <trkpt lat="46.7352" lon="-0.07774">
        <ele>134</ele>
        <time>2017-12-04T23:13:54.168Z</time>
      </trkpt>
      <trkpt lat="46.73517" lon="-0.07779">
        <ele>134</ele>
        <time>2017-12-04T23:13:54.259Z</time>
      </trkpt>
      <trkpt lat="46.73521" lon="-0.07811">
        <ele>134.1</ele>
        <time>2017-12-04T23:13:54.706Z</time>
      </trkpt>
      <trkpt lat="46.73519" lon="-0.07816">
        <ele>134.3</ele>
        <time>2017-12-04T23:13:54.786Z</time>
      </trkpt>
      <trkpt lat="46.73471" lon="-0.07841">
        <ele>134.5</ele>
        <time>2017-12-04T23:13:55.807Z</time>
      </trkpt>
      <trkpt lat="46.73445" lon="-0.07862">
        <ele>135.1</ele>
        <time>2017-12-04T23:13:56.403Z</time>
      </trkpt>
      <trkpt lat="46.73369" lon="-0.07915">
        <ele>135.3</ele>
        <time>2017-12-04T23:13:58.091Z</time>
      </trkpt>
      <trkpt lat="46.73362" lon="-0.07922">
        <ele>135.2</ele>
        <time>2017-12-04T23:13:58.261Z</time>
      </trkpt>
      <trkpt lat="46.73348" lon="-0.07943">
        <ele>136</ele>
        <time>2017-12-04T23:13:58.663Z</time>
      </trkpt>
      <trkpt lat="46.73331" lon="-0.07975">
        <ele>137.2</ele>
        <time>2017-12-04T23:13:59.219Z</time>
      </trkpt>
      <trkpt lat="46.73302" lon="-0.08017">
        <ele>137.6</ele>
        <time>2017-12-04T23:14:00.038Z</time>
      </trkpt>
      <trkpt lat="46.73274" lon="-0.08059">
        <ele>138.2</ele>
        <time>2017-12-04T23:14:00.843Z</time>
      </trkpt>
      <trkpt lat="46.73253" lon="-0.08084">
        <ele>139.2</ele>
        <time>2017-12-04T23:14:01.386Z</time>
      </trkpt>
      <trkpt lat="46.73221" lon="-0.08115">
        <ele>139.1</ele>
        <time>2017-12-04T23:14:02.156Z</time>
      </trkpt>
      <trkpt lat="46.73216" lon="-0.08123">
        <ele>139.4</ele>
        <time>2017-12-04T23:14:02.305Z</time>
      </trkpt>
      <trkpt lat="46.73203" lon="-0.08166">
        <ele>141.3</ele>
        <time>2017-12-04T23:14:02.951Z</time>
      </trkpt>
      <trkpt lat="46.73187" lon="-0.08213">
        <ele>142.7</ele>
        <time>2017-12-04T23:14:03.672Z</time>
      </trkpt>
      <trkpt lat="46.73131" lon="-0.08239">
        <ele>145.2</ele>
        <time>2017-12-04T23:14:04.850Z</time>
      </trkpt>
      <trkpt lat="46.73086" lon="-0.08172">
        <ele>143.2</ele>
        <time>2017-12-04T23:14:06.138Z</time>
      </trkpt>
      <trkpt lat="46.73083" lon="-0.08157">
        <ele>143</ele>
        <time>2017-12-04T23:14:06.353Z</time>
      </trkpt>
      <trkpt lat="46.73052" lon="-0.08089">
        <ele>147</ele>
        <time>2017-12-04T23:14:07.475Z</time>
      </trkpt>
      <trkpt lat="46.73027" lon="-0.08029">
        <ele>151</ele>
        <time>2017-12-04T23:14:08.439Z</time>
      </trkpt>
      <trkpt lat="46.73022" lon="-0.08003">
        <ele>152.1</ele>
        <time>2017-12-04T23:14:08.810Z</time>
      </trkpt>
      <trkpt lat="46.73016" lon="-0.07982">
        <ele>152.8</ele>
        <time>2017-12-04T23:14:09.123Z</time>
      </trkpt>
      <trkpt lat="46.73015" lon="-0.07978">
        <ele>152.9</ele>
        <time>2017-12-04T23:14:09.181Z</time>
      </trkpt>
      <trkpt lat="46.73004" lon="-0.07991">
        <ele>152.9</ele>
        <time>2017-12-04T23:14:09.465Z</time>
      </trkpt>
      <trkpt lat="46.72966" lon="-0.08035">
        <ele>152</ele>
        <time>2017-12-04T23:14:10.437Z</time>
      </trkpt>
      <trkpt lat="46.72918" lon="-0.08084">
        <ele>152</ele>
        <time>2017-12-04T23:14:11.611Z</time>
      </trkpt>
      <trkpt lat="46.72898" lon="-0.08101">
        <ele>152.7</ele>
        <time>2017-12-04T23:14:12.075Z</time>
      </trkpt>
      <trkpt lat="46.72876" lon="-0.0812">
        <ele>153.5</ele>
        <time>2017-12-04T23:14:12.587Z</time>
      </trkpt>
      <trkpt lat="46.72868" lon="-0.08132">
        <ele>153.8</ele>
        <time>2017-12-04T23:14:12.817Z</time>
      </trkpt>
      <trkpt lat="46.72859" lon="-0.08152">
        <ele>154.1</ele>
        <time>2017-12-04T23:14:13.146Z</time>
      </trkpt>
      <trkpt lat="46.72811" lon="-0.08279">
        <ele>153.8</ele>
        <time>2017-12-04T23:14:15.138Z</time>
      </trkpt>
      <trkpt lat="46.72741" lon="-0.08413">
        <ele>154.5</ele>
        <time>2017-12-04T23:14:17.452Z</time>
      </trkpt>
      <trkpt lat="46.72737" lon="-0.08418">
        <ele>154.5</ele>
        <time>2017-12-04T23:14:17.558Z</time>
      </trkpt>
      <trkpt lat="46.72745" lon="-0.08435">
        <ele>154.2</ele>
        <time>2017-12-04T23:14:17.841Z</time>
      </trkpt>
      <trkpt lat="46.72754" lon="-0.08449">
        <ele>153.9</ele>
        <time>2017-12-04T23:14:18.105Z</time>
      </trkpt>
      <trkpt lat="46.72804" lon="-0.08517">
        <ele>154.6</ele>
        <time>2017-12-04T23:14:19.475Z</time>
      </trkpt>
      <trkpt lat="46.72822" lon="-0.08535">
        <ele>155</ele>
        <time>2017-12-04T23:14:19.912Z</time>
      </trkpt>
      <trkpt lat="46.7285" lon="-0.08553">
        <ele>155</ele>
        <time>2017-12-04T23:14:20.525Z</time>
      </trkpt>
      <trkpt lat="46.72858" lon="-0.08558">
        <ele>155</ele>
        <time>2017-12-04T23:14:20.699Z</time>
      </trkpt>
      <trkpt lat="46.72853" lon="-0.08567">
        <ele>155</ele>
        <time>2017-12-04T23:14:20.858Z</time>
      </trkpt>
      <trkpt lat="46.72838" lon="-0.08585">
        <ele>155</ele>
        <time>2017-12-04T23:14:21.247Z</time>
      </trkpt>
      <trkpt lat="46.72818" lon="-0.08609">
        <ele>156</ele>
        <time>2017-12-04T23:14:21.766Z</time>
      </trkpt>
      <trkpt lat="46.72808" lon="-0.08624">
        <ele>156</ele>
        <time>2017-12-04T23:14:22.053Z</time>
      </trkpt>
      <trkpt lat="46.72801" lon="-0.08639">
        <ele>156</ele>
        <time>2017-12-04T23:14:22.302Z</time>
      </trkpt>
      <trkpt lat="46.72799" lon="-0.08655">
        <ele>156</ele>
        <time>2017-12-04T23:14:22.525Z</time>
      </trkpt>
      <trkpt lat="46.72797" lon="-0.08677">
        <ele>156</ele>
        <time>2017-12-04T23:14:22.830Z</time>
      </trkpt>
      <trkpt lat="46.72792" lon="-0.08702">
        <ele>156</ele>
        <time>2017-12-04T23:14:23.188Z</time>
      </trkpt>
      <trkpt lat="46.72804" lon="-0.08761">
        <ele>156</ele>
        <time>2017-12-04T23:14:24.033Z</time>
      </trkpt>
      <trkpt lat="46.72814" lon="-0.08789">
        <ele>155.5</ele>
        <time>2017-12-04T23:14:24.467Z</time>
      </trkpt>
      <trkpt lat="46.72827" lon="-0.08811">
        <ele>155.2</ele>
        <time>2017-12-04T23:14:24.866Z</time>
      </trkpt>
      <trkpt lat="46.72868" lon="-0.08858">
        <ele>155.7</ele>
        <time>2017-12-04T23:14:25.911Z</time>
      </trkpt>
      <trkpt lat="46.72913" lon="-0.08933">
        <ele>156.6</ele>
        <time>2017-12-04T23:14:27.280Z</time>
      </trkpt>
      <trkpt lat="46.72929" lon="-0.08968">
        <ele>157</ele>
        <time>2017-12-04T23:14:27.858Z</time>
      </trkpt>
      <trkpt lat="46.72947" lon="-0.09025">
        <ele>157</ele>
        <time>2017-12-04T23:14:28.720Z</time>
      </trkpt>
      <trkpt lat="46.72983" lon="-0.09131">
        <ele>158</ele>
        <time>2017-12-04T23:14:30.345Z</time>
      </trkpt>
      <trkpt lat="46.73013" lon="-0.09211">
        <ele>159</ele>
        <time>2017-12-04T23:14:31.598Z</time>
      </trkpt>
      <trkpt lat="46.73028" lon="-0.09259">
        <ele>160</ele>
        <time>2017-12-04T23:14:32.323Z</time>
      </trkpt>
      <trkpt lat="46.73053" lon="-0.09376">
        <ele>160</ele>
        <time>2017-12-04T23:14:34.006Z</time>
      </trkpt>
      <trkpt lat="46.73063" lon="-0.09397">
        <ele>160</ele>
        <time>2017-12-04T23:14:34.357Z</time>
      </trkpt>
      <trkpt lat="46.73081" lon="-0.09406">
        <ele>160</ele>
        <time>2017-12-04T23:14:34.738Z</time>
      </trkpt>
      <trkpt lat="46.73127" lon="-0.09413">
        <ele>160</ele>
        <time>2017-12-04T23:14:35.665Z</time>
      </trkpt>
      <trkpt lat="46.73098" lon="-0.09438">
        <ele>160</ele>
        <time>2017-12-04T23:14:36.340Z</time>
      </trkpt>
      <trkpt lat="46.73079" lon="-0.09459">
        <ele>160</ele>
        <time>2017-12-04T23:14:36.818Z</time>
      </trkpt>
      <trkpt lat="46.73059" lon="-0.09494">
        <ele>160</ele>
        <time>2017-12-04T23:14:37.444Z</time>
      </trkpt>
      <trkpt lat="46.7303" lon="-0.09565">
        <ele>160</ele>
        <time>2017-12-04T23:14:38.579Z</time>
      </trkpt>
      <trkpt lat="46.73013" lon="-0.09627">
        <ele>159.2</ele>
        <time>2017-12-04T23:14:39.496Z</time>
      </trkpt>
      <trkpt lat="46.73002" lon="-0.09678">
        <ele>159</ele>
        <time>2017-12-04T23:14:40.230Z</time>
      </trkpt>
      <trkpt lat="46.72994" lon="-0.09701">
        <ele>159</ele>
        <time>2017-12-04T23:14:40.584Z</time>
      </trkpt>
      <trkpt lat="46.72981" lon="-0.09723">
        <ele>159</ele>
        <time>2017-12-04T23:14:40.983Z</time>
      </trkpt>
      <trkpt lat="46.72973" lon="-0.09734">
        <ele>159</ele>
        <time>2017-12-04T23:14:41.203Z</time>
      </trkpt>
      <trkpt lat="46.72962" lon="-0.09756">
        <ele>158.6</ele>
        <time>2017-12-04T23:14:41.577Z</time>
      </trkpt>
      <trkpt lat="46.72955" lon="-0.09787">
        <ele>158.3</ele>
        <time>2017-12-04T23:14:42.025Z</time>
      </trkpt>
      <trkpt lat="46.7296" lon="-0.09832">
        <ele>158</ele>
        <time>2017-12-04T23:14:42.651Z</time>
      </trkpt>
      <trkpt lat="46.7296" lon="-0.09851">
        <ele>157.7</ele>
        <time>2017-12-04T23:14:42.912Z</time>
      </trkpt>
      <trkpt lat="46.72956" lon="-0.09877">
        <ele>157.2</ele>
        <time>2017-12-04T23:14:43.278Z</time>
      </trkpt>
      <trkpt lat="46.72947" lon="-0.09931">
        <ele>156</ele>
        <time>2017-12-04T23:14:44.041Z</time>
      </trkpt>
      <trkpt lat="46.72946" lon="-0.09937">
        <ele>156</ele>
        <time>2017-12-04T23:14:44.126Z</time>
      </trkpt>
      <trkpt lat="46.72949" lon="-0.09942">
        <ele>156</ele>
        <time>2017-12-04T23:14:44.217Z</time>
      </trkpt>
      <trkpt lat="46.72952" lon="-0.0995">
        <ele>156</ele>
        <time>2017-12-04T23:14:44.342Z</time>
      </trkpt>
      <trkpt lat="46.72959" lon="-0.09957">
        <ele>156</ele>
        <time>2017-12-04T23:14:44.512Z</time>
      </trkpt>
      <trkpt lat="46.72962" lon="-0.09956">
        <ele>156</ele>
        <time>2017-12-04T23:14:44.574Z</time>
      </trkpt>
      <trkpt lat="46.73003" lon="-0.09944">
        <ele>157</ele>
        <time>2017-12-04T23:14:45.412Z</time>
      </trkpt>
      <trkpt lat="46.73016" lon="-0.09945">
        <ele>157</ele>
        <time>2017-12-04T23:14:45.673Z</time>
      </trkpt>
      <trkpt lat="46.73024" lon="-0.0995">
        <ele>156.8</ele>
        <time>2017-12-04T23:14:45.847Z</time>
      </trkpt>
      <trkpt lat="46.73063" lon="-0.09981">
        <ele>156</ele>
        <time>2017-12-04T23:14:46.737Z</time>
      </trkpt>
      <trkpt lat="46.73098" lon="-0.10015">
        <ele>155.7</ele>
        <time>2017-12-04T23:14:47.580Z</time>
      </trkpt>
      <trkpt lat="46.73131" lon="-0.10054">
        <ele>155.1</ele>
        <time>2017-12-04T23:14:48.431Z</time>
      </trkpt>
      <trkpt lat="46.73155" lon="-0.1008">
        <ele>154.1</ele>
        <time>2017-12-04T23:14:49.030Z</time>
      </trkpt>
      <trkpt lat="46.73158" lon="-0.10082">
        <ele>154</ele>
        <time>2017-12-04T23:14:49.096Z</time>
      </trkpt>
      <trkpt lat="46.73153" lon="-0.10098">
        <ele>154</ele>
        <time>2017-12-04T23:14:49.338Z</time>
      </trkpt>
      <trkpt lat="46.73121" lon="-0.10171">
        <ele>151.3</ele>
        <time>2017-12-04T23:14:50.528Z</time>
      </trkpt>
      <trkpt lat="46.73107" lon="-0.10207">
        <ele>150.5</ele>
        <time>2017-12-04T23:14:51.097Z</time>
      </trkpt>
      <trkpt lat="46.73083" lon="-0.10282">
        <ele>151</ele>
        <time>2017-12-04T23:14:52.234Z</time>
      </trkpt>
      <trkpt lat="46.73076" lon="-0.10326">
        <ele>152.1</ele>
        <time>2017-12-04T23:14:52.854Z</time>
      </trkpt>
      <trkpt lat="46.73075" lon="-0.10356">
        <ele>152.3</ele>
        <time>2017-12-04T23:14:53.267Z</time>
      </trkpt>
      <trkpt lat="46.73093" lon="-0.1042">
        <ele>152.7</ele>
        <time>2017-12-04T23:14:54.217Z</time>
      </trkpt>
      <trkpt lat="46.73125" lon="-0.10526">
        <ele>152</ele>
        <time>2017-12-04T23:14:55.808Z</time>
      </trkpt>
      <trkpt lat="46.73132" lon="-0.10545">
        <ele>151.4</ele>
        <time>2017-12-04T23:14:56.104Z</time>
      </trkpt>
      <trkpt lat="46.7314" lon="-0.1056">
        <ele>150.8</ele>
        <time>2017-12-04T23:14:56.365Z</time>
      </trkpt>
      <trkpt lat="46.73156" lon="-0.10582">
        <ele>150</ele>
        <time>2017-12-04T23:14:56.806Z</time>
      </trkpt>
      <trkpt lat="46.7317" lon="-0.10605">
        <ele>149.9</ele>
        <time>2017-12-04T23:14:57.229Z</time>
      </trkpt>
      <trkpt lat="46.73179" lon="-0.10628">
        <ele>149.6</ele>
        <time>2017-12-04T23:14:57.593Z</time>
      </trkpt>
      <trkpt lat="46.73198" lon="-0.10697">
        <ele>149.7</ele>
        <time>2017-12-04T23:14:58.614Z</time>
      </trkpt>
      <trkpt lat="46.73211" lon="-0.10735">
        <ele>149.1</ele>
        <time>2017-12-04T23:14:59.197Z</time>
      </trkpt>
      <trkpt lat="46.7325" lon="-0.10852">
        <ele>147</ele>
        <time>2017-12-04T23:15:00.984Z</time>
      </trkpt>
      <trkpt lat="46.73267" lon="-0.10889">
        <ele>145.8</ele>
        <time>2017-12-04T23:15:01.596Z</time>
      </trkpt>
      <trkpt lat="46.73274" lon="-0.10911">
        <ele>145.3</ele>
        <time>2017-12-04T23:15:01.929Z</time>
      </trkpt>
      <trkpt lat="46.73278" lon="-0.10939">
        <ele>145</ele>
        <time>2017-12-04T23:15:02.322Z</time>
      </trkpt>
      <trkpt lat="46.73278" lon="-0.10988">
        <ele>145.6</ele>
        <time>2017-12-04T23:15:02.995Z</time>
      </trkpt>
      <trkpt lat="46.73274" lon="-0.11033">
        <ele>145.8</ele>
        <time>2017-12-04T23:15:03.618Z</time>
      </trkpt>
      <trkpt lat="46.73273" lon="-0.11064">
        <ele>145</ele>
        <time>2017-12-04T23:15:04.044Z</time>
      </trkpt>
      <trkpt lat="46.73273" lon="-0.11111">
        <ele>145</ele>
        <time>2017-12-04T23:15:04.690Z</time>
      </trkpt>
      <trkpt lat="46.73277" lon="-0.11141">
        <ele>145</ele>
        <time>2017-12-04T23:15:05.110Z</time>
      </trkpt>
      <trkpt lat="46.73245" lon="-0.11166">
        <ele>145.4</ele>
        <time>2017-12-04T23:15:05.837Z</time>
      </trkpt>
      <trkpt lat="46.73223" lon="-0.11178">
        <ele>146.5</ele>
        <time>2017-12-04T23:15:06.308Z</time>
      </trkpt>
      <trkpt lat="46.73192" lon="-0.11188">
        <ele>147.3</ele>
        <time>2017-12-04T23:15:06.944Z</time>
      </trkpt>
      <trkpt lat="46.73172" lon="-0.1119">
        <ele>148</ele>
        <time>2017-12-04T23:15:07.346Z</time>
      </trkpt>
      <trkpt lat="46.73157" lon="-0.11191">
        <ele>148.5</ele>
        <time>2017-12-04T23:15:07.647Z</time>
      </trkpt>
      <trkpt lat="46.7314" lon="-0.112">
        <ele>149.2</ele>
        <time>2017-12-04T23:15:08.009Z</time>
      </trkpt>
      <trkpt lat="46.73068" lon="-0.1126">
        <ele>153.7</ele>
        <time>2017-12-04T23:15:09.671Z</time>
      </trkpt>
      <trkpt lat="46.73123" lon="-0.11387">
        <ele>154</ele>
        <time>2017-12-04T23:15:11.734Z</time>
      </trkpt>
      <trkpt lat="46.73151" lon="-0.11455">
        <ele>151.7</ele>
        <time>2017-12-04T23:15:12.824Z</time>
      </trkpt>
      <trkpt lat="46.73173" lon="-0.11502">
        <ele>151.4</ele>
        <time>2017-12-04T23:15:13.606Z</time>
      </trkpt>
      <trkpt lat="46.73232" lon="-0.11615">
        <ele>153.1</ele>
        <time>2017-12-04T23:15:15.557Z</time>
      </trkpt>
      <trkpt lat="46.73261" lon="-0.1167">
        <ele>152.6</ele>
        <time>2017-12-04T23:15:16.510Z</time>
      </trkpt>
      <trkpt lat="46.73268" lon="-0.1168">
        <ele>152.4</ele>
        <time>2017-12-04T23:15:16.706Z</time>
      </trkpt>
      <trkpt lat="46.73282" lon="-0.11697">
        <ele>151.8</ele>
        <time>2017-12-04T23:15:17.071Z</time>
      </trkpt>
      <trkpt lat="46.73316" lon="-0.1173">
        <ele>150.7</ele>
        <time>2017-12-04T23:15:17.889Z</time>
      </trkpt>
      <trkpt lat="46.73409" lon="-0.11816">
        <ele>153.3</ele>
        <time>2017-12-04T23:15:20.095Z</time>
      </trkpt>
      <trkpt lat="46.73421" lon="-0.11829">
        <ele>153.7</ele>
        <time>2017-12-04T23:15:20.395Z</time>
      </trkpt>
      <trkpt lat="46.73431" lon="-0.11857">
        <ele>153.5</ele>
        <time>2017-12-04T23:15:20.829Z</time>
      </trkpt>
      <trkpt lat="46.73451" lon="-0.11908">
        <ele>153.8</ele>
        <time>2017-12-04T23:15:21.636Z</time>
      </trkpt>
      <trkpt lat="46.73491" lon="-0.11997">
        <ele>153.3</ele>
        <time>2017-12-04T23:15:23.098Z</time>
      </trkpt>
      <trkpt lat="46.7351" lon="-0.12047">
        <ele>151.9</ele>
        <time>2017-12-04T23:15:23.883Z</time>
      </trkpt>
      <trkpt lat="46.73538" lon="-0.12111">
        <ele>152.6</ele>
        <time>2017-12-04T23:15:24.926Z</time>
      </trkpt>
      <trkpt lat="46.73565" lon="-0.12171">
        <ele>153</ele>
        <time>2017-12-04T23:15:25.912Z</time>
      </trkpt>
      <trkpt lat="46.73567" lon="-0.12178">
        <ele>153</ele>
        <time>2017-12-04T23:15:26.016Z</time>
      </trkpt>
      <trkpt lat="46.73565" lon="-0.1218">
        <ele>153</ele>
        <time>2017-12-04T23:15:26.065Z</time>
      </trkpt>
      <trkpt lat="46.73512" lon="-0.12247">
        <ele>154.6</ele>
        <time>2017-12-04T23:15:27.470Z</time>
      </trkpt>
      <trkpt lat="46.73481" lon="-0.1229">
        <ele>155</ele>
        <time>2017-12-04T23:15:28.327Z</time>
      </trkpt>
      <trkpt lat="46.73458" lon="-0.12314">
        <ele>155.7</ele>
        <time>2017-12-04T23:15:28.894Z</time>
      </trkpt>
      <trkpt lat="46.73429" lon="-0.12342">
        <ele>156</ele>
        <time>2017-12-04T23:15:29.591Z</time>
      </trkpt>
      <trkpt lat="46.7342" lon="-0.12355">
        <ele>156</ele>
        <time>2017-12-04T23:15:29.845Z</time>
      </trkpt>
      <trkpt lat="46.73409" lon="-0.12372">
        <ele>156.3</ele>
        <time>2017-12-04T23:15:30.166Z</time>
      </trkpt>
      <trkpt lat="46.73382" lon="-0.12424">
        <ele>157</ele>
        <time>2017-12-04T23:15:31.062Z</time>
      </trkpt>
      <trkpt lat="46.733" lon="-0.12579">
        <ele>158.2</ele>
        <time>2017-12-04T23:15:33.751Z</time>
      </trkpt>
      <trkpt lat="46.73288" lon="-0.12603">
        <ele>158.9</ele>
        <time>2017-12-04T23:15:34.159Z</time>
      </trkpt>
      <trkpt lat="46.73282" lon="-0.12614">
        <ele>159</ele>
        <time>2017-12-04T23:15:34.352Z</time>
      </trkpt>
      <trkpt lat="46.73272" lon="-0.12623">
        <ele>159</ele>
        <time>2017-12-04T23:15:34.587Z</time>
      </trkpt>
      <trkpt lat="46.73248" lon="-0.12644">
        <ele>159.2</ele>
        <time>2017-12-04T23:15:35.148Z</time>
      </trkpt>
      <trkpt lat="46.73222" lon="-0.12667">
        <ele>160</ele>
        <time>2017-12-04T23:15:35.757Z</time>
      </trkpt>
      <trkpt lat="46.73224" lon="-0.12672">
        <ele>160</ele>
        <time>2017-12-04T23:15:35.837Z</time>
      </trkpt>
      <trkpt lat="46.73215" lon="-0.12686">
        <ele>160</ele>
        <time>2017-12-04T23:15:36.101Z</time>
      </trkpt>
      <trkpt lat="46.73186" lon="-0.12725">
        <ele>160</ele>
        <time>2017-12-04T23:15:36.891Z</time>
      </trkpt>
      <trkpt lat="46.73095" lon="-0.12844">
        <ele>161</ele>
        <time>2017-12-04T23:15:39.340Z</time>
      </trkpt>
      <trkpt lat="46.73064" lon="-0.1288">
        <ele>161.2</ele>
        <time>2017-12-04T23:15:40.134Z</time>
      </trkpt>
      <trkpt lat="46.73033" lon="-0.1291">
        <ele>161</ele>
        <time>2017-12-04T23:15:40.879Z</time>
      </trkpt>
      <trkpt lat="46.73011" lon="-0.12931">
        <ele>161</ele>
        <time>2017-12-04T23:15:41.406Z</time>
      </trkpt>
      <trkpt lat="46.72982" lon="-0.12954">
        <ele>160.7</ele>
        <time>2017-12-04T23:15:42.067Z</time>
      </trkpt>
      <trkpt lat="46.7296" lon="-0.1297">
        <ele>160.5</ele>
        <time>2017-12-04T23:15:42.560Z</time>
      </trkpt>
      <trkpt lat="46.7294" lon="-0.12982">
        <ele>160.5</ele>
        <time>2017-12-04T23:15:42.993Z</time>
      </trkpt>
      <trkpt lat="46.72913" lon="-0.12998">
        <ele>160</ele>
        <time>2017-12-04T23:15:43.577Z</time>
      </trkpt>
      <trkpt lat="46.72855" lon="-0.13042">
        <ele>158.5</ele>
        <time>2017-12-04T23:15:44.887Z</time>
      </trkpt>
      <trkpt lat="46.72791" lon="-0.13087">
        <ele>156.9</ele>
        <time>2017-12-04T23:15:46.311Z</time>
      </trkpt>
      <trkpt lat="46.72782" lon="-0.13093">
        <ele>156.7</ele>
        <time>2017-12-04T23:15:46.509Z</time>
      </trkpt>
      <trkpt lat="46.72775" lon="-0.13102">
        <ele>156.2</ele>
        <time>2017-12-04T23:15:46.696Z</time>
      </trkpt>
      <trkpt lat="46.7277" lon="-0.13108">
        <ele>155.8</ele>
        <time>2017-12-04T23:15:46.826Z</time>
      </trkpt>
      <trkpt lat="46.7277" lon="-0.13107">
        <ele>155.9</ele>
        <time>2017-12-04T23:15:46.840Z</time>
      </trkpt>
      <trkpt lat="46.72782" lon="-0.13093">
        <ele>156.7</ele>
        <time>2017-12-04T23:15:47.148Z</time>
      </trkpt>
      <trkpt lat="46.7276" lon="-0.13081">
        <ele>156.5</ele>
        <time>2017-12-04T23:15:47.619Z</time>
      </trkpt>
      <trkpt lat="46.72745" lon="-0.13082">
        <ele>156.3</ele>
        <time>2017-12-04T23:15:47.920Z</time>
      </trkpt>
      <trkpt lat="46.72702" lon="-0.13099">
        <ele>156.4</ele>
        <time>2017-12-04T23:15:48.813Z</time>
      </trkpt>
      <trkpt lat="46.72628" lon="-0.13129">
        <ele>155.4</ele>
        <time>2017-12-04T23:15:50.352Z</time>
      </trkpt>
      <trkpt lat="46.72563" lon="-0.13152">
        <ele>154.9</ele>
        <time>2017-12-04T23:15:51.692Z</time>
      </trkpt>
      <trkpt lat="46.72526" lon="-0.13167">
        <ele>155</ele>
        <time>2017-12-04T23:15:52.462Z</time>
      </trkpt>
      <trkpt lat="46.72467" lon="-0.132">
        <ele>154.8</ele>
        <time>2017-12-04T23:15:53.728Z</time>
      </trkpt>
      <trkpt lat="46.72426" lon="-0.13224">
        <ele>155.6</ele>
        <time>2017-12-04T23:15:54.613Z</time>
      </trkpt>
      <trkpt lat="46.72352" lon="-0.13269">
        <ele>155.5</ele>
        <time>2017-12-04T23:15:56.220Z</time>
      </trkpt>
      <trkpt lat="46.72328" lon="-0.13286">
        <ele>155.6</ele>
        <time>2017-12-04T23:15:56.755Z</time>
      </trkpt>
      <trkpt lat="46.72304" lon="-0.13317">
        <ele>155</ele>
        <time>2017-12-04T23:15:57.397Z</time>
      </trkpt>
      <trkpt lat="46.72289" lon="-0.1334">
        <ele>154.5</ele>
        <time>2017-12-04T23:15:57.833Z</time>
      </trkpt>
      <trkpt lat="46.72272" lon="-0.13377">
        <ele>154.3</ele>
        <time>2017-12-04T23:15:58.445Z</time>
      </trkpt>
      <trkpt lat="46.72244" lon="-0.1346">
        <ele>152.6</ele>
        <time>2017-12-04T23:15:59.716Z</time>
      </trkpt>
      <trkpt lat="46.72219" lon="-0.13517">
        <ele>149.6</ele>
        <time>2017-12-04T23:16:00.646Z</time>
      </trkpt>
      <trkpt lat="46.72209" lon="-0.13533">
        <ele>148.3</ele>
        <time>2017-12-04T23:16:00.943Z</time>
      </trkpt>
      <trkpt lat="46.72196" lon="-0.13546">
        <ele>145.8</ele>
        <time>2017-12-04T23:16:01.259Z</time>
      </trkpt>
      <trkpt lat="46.72183" lon="-0.13553">
        <ele>144</ele>
        <time>2017-12-04T23:16:01.537Z</time>
      </trkpt>
      <trkpt lat="46.7218" lon="-0.13558">
        <ele>143.2</ele>
        <time>2017-12-04T23:16:01.628Z</time>
      </trkpt>
      <trkpt lat="46.72181" lon="-0.13568">
        <ele>142.2</ele>
        <time>2017-12-04T23:16:01.767Z</time>
      </trkpt>
      <trkpt lat="46.72188" lon="-0.13574">
        <ele>141.8</ele>
        <time>2017-12-04T23:16:01.930Z</time>
      </trkpt>
      <trkpt lat="46.72224" lon="-0.13591">
        <ele>142.4</ele>
        <time>2017-12-04T23:16:02.688Z</time>
      </trkpt>
      <trkpt lat="46.7226" lon="-0.13602">
        <ele>141.5</ele>
        <time>2017-12-04T23:16:03.425Z</time>
      </trkpt>
      <trkpt lat="46.72269" lon="-0.13602">
        <ele>141.4</ele>
        <time>2017-12-04T23:16:03.605Z</time>
      </trkpt>
      <trkpt lat="46.72283" lon="-0.13594">
        <ele>140.6</ele>
        <time>2017-12-04T23:16:03.906Z</time>
      </trkpt>
      <trkpt lat="46.72318" lon="-0.13571">
        <ele>136.8</ele>
        <time>2017-12-04T23:16:04.675Z</time>
      </trkpt>
      <trkpt lat="46.7234" lon="-0.13561">
        <ele>135.4</ele>
        <time>2017-12-04T23:16:05.137Z</time>
      </trkpt>
      <trkpt lat="46.72368" lon="-0.13552">
        <ele>135.1</ele>
        <time>2017-12-04T23:16:05.712Z</time>
      </trkpt>
      <trkpt lat="46.72423" lon="-0.13518">
        <ele>135.7</ele>
        <time>2017-12-04T23:16:06.909Z</time>
      </trkpt>
      <trkpt lat="46.7244" lon="-0.13515">
        <ele>135.9</ele>
        <time>2017-12-04T23:16:07.252Z</time>
      </trkpt>
      <trkpt lat="46.72484" lon="-0.1351">
        <ele>136.6</ele>
        <time>2017-12-04T23:16:08.136Z</time>
      </trkpt>
      <trkpt lat="46.7253" lon="-0.135">
        <ele>137.1</ele>
        <time>2017-12-04T23:16:09.068Z</time>
      </trkpt>
      <trkpt lat="46.72549" lon="-0.135">
        <ele>137.8</ele>
        <time>2017-12-04T23:16:09.449Z</time>
      </trkpt>
      <trkpt lat="46.72577" lon="-0.1351">
        <ele>138.1</ele>
        <time>2017-12-04T23:16:10.027Z</time>
      </trkpt>
      <trkpt lat="46.72629" lon="-0.13536">
        <ele>138.2</ele>
        <time>2017-12-04T23:16:11.129Z</time>
      </trkpt>
      <trkpt lat="46.72641" lon="-0.1354">
        <ele>138.2</ele>
        <time>2017-12-04T23:16:11.376Z</time>
      </trkpt>
      <trkpt lat="46.72656" lon="-0.13538">
        <ele>138.9</ele>
        <time>2017-12-04T23:16:11.678Z</time>
      </trkpt>
      <trkpt lat="46.7268" lon="-0.13537">
        <ele>139.5</ele>
        <time>2017-12-04T23:16:12.159Z</time>
      </trkpt>
      <trkpt lat="46.72687" lon="-0.13538">
        <ele>139.5</ele>
        <time>2017-12-04T23:16:12.300Z</time>
      </trkpt>
      <trkpt lat="46.72693" lon="-0.13539">
        <ele>139.6</ele>
        <time>2017-12-04T23:16:12.421Z</time>
      </trkpt>
      <trkpt lat="46.72694" lon="-0.1356">
        <ele>138.8</ele>
        <time>2017-12-04T23:16:12.710Z</time>
      </trkpt>
      <trkpt lat="46.72693" lon="-0.13581">
        <ele>138</ele>
        <time>2017-12-04T23:16:12.999Z</time>
      </trkpt>
      <trkpt lat="46.72686" lon="-0.13608">
        <ele>136.5</ele>
        <time>2017-12-04T23:16:13.396Z</time>
      </trkpt>
      <trkpt lat="46.7269" lon="-0.13635">
        <ele>136.7</ele>
        <time>2017-12-04T23:16:13.775Z</time>
      </trkpt>
      <trkpt lat="46.72693" lon="-0.13643">
        <ele>137</ele>
        <time>2017-12-04T23:16:13.900Z</time>
      </trkpt>
      <trkpt lat="46.72693" lon="-0.1365">
        <ele>137.3</ele>
        <time>2017-12-04T23:16:13.996Z</time>
      </trkpt>
      <trkpt lat="46.72679" lon="-0.13675">
        <ele>137.2</ele>
        <time>2017-12-04T23:16:14.439Z</time>
      </trkpt>
      <trkpt lat="46.72676" lon="-0.13681">
        <ele>137.2</ele>
        <time>2017-12-04T23:16:14.541Z</time>
      </trkpt>
      <trkpt lat="46.72679" lon="-0.13693">
        <ele>137.8</ele>
        <time>2017-12-04T23:16:14.716Z</time>
      </trkpt>
      <trkpt lat="46.72697" lon="-0.13773">
        <ele>139.3</ele>
        <time>2017-12-04T23:16:15.873Z</time>
      </trkpt>
      <trkpt lat="46.72723" lon="-0.13884">
        <ele>139.4</ele>
        <time>2017-12-04T23:16:17.484Z</time>
      </trkpt>
      <trkpt lat="46.72732" lon="-0.13913">
        <ele>139.4</ele>
        <time>2017-12-04T23:16:17.921Z</time>
      </trkpt>
      <trkpt lat="46.72748" lon="-0.1394">
        <ele>138.2</ele>
        <time>2017-12-04T23:16:18.411Z</time>
      </trkpt>
      <trkpt lat="46.72781" lon="-0.13993">
        <ele>136.6</ele>
        <time>2017-12-04T23:16:19.395Z</time>
      </trkpt>
      <trkpt lat="46.72815" lon="-0.14054">
        <ele>134.4</ele>
        <time>2017-12-04T23:16:20.475Z</time>
      </trkpt>
      <trkpt lat="46.72831" lon="-0.14079">
        <ele>134.1</ele>
        <time>2017-12-04T23:16:20.945Z</time>
      </trkpt>
      <trkpt lat="46.72818" lon="-0.141">
        <ele>132.8</ele>
        <time>2017-12-04T23:16:21.334Z</time>
      </trkpt>
      <trkpt lat="46.72804" lon="-0.14138">
        <ele>130.1</ele>
        <time>2017-12-04T23:16:21.927Z</time>
      </trkpt>
      <trkpt lat="46.72777" lon="-0.14225">
        <ele>126</ele>
        <time>2017-12-04T23:16:23.239Z</time>
      </trkpt>
      <trkpt lat="46.72764" lon="-0.14276">
        <ele>124.6</ele>
        <time>2017-12-04T23:16:23.986Z</time>
      </trkpt>
      <trkpt lat="46.72757" lon="-0.14314">
        <ele>122.7</ele>
        <time>2017-12-04T23:16:24.526Z</time>
      </trkpt>
      <trkpt lat="46.72736" lon="-0.14392">
        <ele>117.8</ele>
        <time>2017-12-04T23:16:25.677Z</time>
      </trkpt>
      <trkpt lat="46.72724" lon="-0.14413">
        <ele>114.6</ele>
        <time>2017-12-04T23:16:26.053Z</time>
      </trkpt>
      <trkpt lat="46.72661" lon="-0.1451">
        <ele>106.6</ele>
        <time>2017-12-04T23:16:27.889Z</time>
      </trkpt>
      <trkpt lat="46.72594" lon="-0.14618">
        <ele>101.4</ele>
        <time>2017-12-04T23:16:29.890Z</time>
      </trkpt>
      <trkpt lat="46.72578" lon="-0.14636">
        <ele>100.8</ele>
        <time>2017-12-04T23:16:30.295Z</time>
      </trkpt>
      <trkpt lat="46.7253" lon="-0.14695">
        <ele>100</ele>
        <time>2017-12-04T23:16:31.553Z</time>
      </trkpt>
      <trkpt lat="46.72476" lon="-0.14772">
        <ele>98.3</ele>
        <time>2017-12-04T23:16:33.066Z</time>
      </trkpt>
      <trkpt lat="46.72465" lon="-0.14787">
        <ele>98.2</ele>
        <time>2017-12-04T23:16:33.368Z</time>
      </trkpt>
      <trkpt lat="46.72458" lon="-0.14791">
        <ele>98.2</ele>
        <time>2017-12-04T23:16:33.519Z</time>
      </trkpt>
      <trkpt lat="46.72417" lon="-0.14804">
        <ele>97</ele>
        <time>2017-12-04T23:16:34.360Z</time>
      </trkpt>
      <trkpt lat="46.72322" lon="-0.14853">
        <ele>96</ele>
        <time>2017-12-04T23:16:36.379Z</time>
      </trkpt>
      <trkpt lat="46.72289" lon="-0.14872">
        <ele>96</ele>
        <time>2017-12-04T23:16:37.090Z</time>
      </trkpt>
      <trkpt lat="46.7227" lon="-0.14886">
        <ele>96</ele>
        <time>2017-12-04T23:16:37.517Z</time>
      </trkpt>
      <trkpt lat="46.72281" lon="-0.14907">
        <ele>96</ele>
        <time>2017-12-04T23:16:37.880Z</time>
      </trkpt>
      <trkpt lat="46.72296" lon="-0.14971">
        <ele>95</ele>
        <time>2017-12-04T23:16:38.809Z</time>
      </trkpt>
      <trkpt lat="46.72304" lon="-0.15002">
        <ele>95</ele>
        <time>2017-12-04T23:16:39.264Z</time>
      </trkpt>
      <trkpt lat="46.7231" lon="-0.15016">
        <ele>95</ele>
        <time>2017-12-04T23:16:39.491Z</time>
      </trkpt>
      <trkpt lat="46.72318" lon="-0.15031">
        <ele>95</ele>
        <time>2017-12-04T23:16:39.752Z</time>
      </trkpt>
      <trkpt lat="46.72332" lon="-0.15051">
        <ele>95</ele>
        <time>2017-12-04T23:16:40.145Z</time>
      </trkpt>
      <trkpt lat="46.72408" lon="-0.15153">
        <ele>95</ele>
        <time>2017-12-04T23:16:42.215Z</time>
      </trkpt>
      <trkpt lat="46.72439" lon="-0.15193">
        <ele>95</ele>
        <time>2017-12-04T23:16:43.044Z</time>
      </trkpt>
      <trkpt lat="46.72469" lon="-0.15225">
        <ele>95</ele>
        <time>2017-12-04T23:16:43.789Z</time>
      </trkpt>
      <trkpt lat="46.72494" lon="-0.1525">
        <ele>95</ele>
        <time>2017-12-04T23:16:44.396Z</time>
      </trkpt>
      <trkpt lat="46.72534" lon="-0.1529">
        <ele>95.2</ele>
        <time>2017-12-04T23:16:45.368Z</time>
      </trkpt>
      <trkpt lat="46.72564" lon="-0.15312">
        <ele>95</ele>
        <time>2017-12-04T23:16:46.041Z</time>
      </trkpt>
      <trkpt lat="46.72588" lon="-0.15323">
        <ele>94.8</ele>
        <time>2017-12-04T23:16:46.545Z</time>
      </trkpt>
      <trkpt lat="46.72605" lon="-0.15327">
        <ele>95.1</ele>
        <time>2017-12-04T23:16:46.890Z</time>
      </trkpt>
      <trkpt lat="46.72659" lon="-0.15335">
        <ele>95.9</ele>
        <time>2017-12-04T23:16:47.978Z</time>
      </trkpt>
      <trkpt lat="46.72718" lon="-0.15345">
        <ele>96.6</ele>
        <time>2017-12-04T23:16:49.168Z</time>
      </trkpt>
      <trkpt lat="46.72746" lon="-0.15351">
        <ele>96.4</ele>
        <time>2017-12-04T23:16:49.735Z</time>
      </trkpt>
      <trkpt lat="46.7277" lon="-0.15355">
        <ele>95.9</ele>
        <time>2017-12-04T23:16:50.219Z</time>
      </trkpt>
      <trkpt lat="46.72796" lon="-0.15353">
        <ele>96</ele>
        <time>2017-12-04T23:16:50.741Z</time>
      </trkpt>
      <trkpt lat="46.72808" lon="-0.15348">
        <ele>96.3</ele>
        <time>2017-12-04T23:16:50.991Z</time>
      </trkpt>
      <trkpt lat="46.72818" lon="-0.15349">
        <ele>95.9</ele>
        <time>2017-12-04T23:16:51.192Z</time>
      </trkpt>
      <trkpt lat="46.7283" lon="-0.15353">
        <ele>95.4</ele>
        <time>2017-12-04T23:16:51.439Z</time>
      </trkpt>
      <trkpt lat="46.72844" lon="-0.15365">
        <ele>96.9</ele>
        <time>2017-12-04T23:16:51.764Z</time>
      </trkpt>
      <trkpt lat="46.72917" lon="-0.15446">
        <ele>96</ele>
        <time>2017-12-04T23:16:53.602Z</time>
      </trkpt>
      <trkpt lat="46.72933" lon="-0.15461">
        <ele>96.9</ele>
        <time>2017-12-04T23:16:53.983Z</time>
      </trkpt>
      <trkpt lat="46.72945" lon="-0.15468">
        <ele>96.9</ele>
        <time>2017-12-04T23:16:54.242Z</time>
      </trkpt>
      <trkpt lat="46.72978" lon="-0.15478">
        <ele>96.7</ele>
        <time>2017-12-04T23:16:54.917Z</time>
      </trkpt>
      <trkpt lat="46.72993" lon="-0.15485">
        <ele>96.8</ele>
        <time>2017-12-04T23:16:55.233Z</time>
      </trkpt>
      <trkpt lat="46.73" lon="-0.15492">
        <ele>97</ele>
        <time>2017-12-04T23:16:55.403Z</time>
      </trkpt>
      <trkpt lat="46.73002" lon="-0.15496">
        <ele>96.9</ele>
        <time>2017-12-04T23:16:55.471Z</time>
      </trkpt>
      <trkpt lat="46.73001" lon="-0.15499">
        <ele>97</ele>
        <time>2017-12-04T23:16:55.517Z</time>
      </trkpt>
      <trkpt lat="46.72979" lon="-0.15549">
        <ele>94.2</ele>
        <time>2017-12-04T23:16:56.333Z</time>
      </trkpt>
      <trkpt lat="46.7293" lon="-0.15662">
        <ele>96.9</ele>
        <time>2017-12-04T23:16:58.170Z</time>
      </trkpt>
      <trkpt lat="46.72917" lon="-0.15701">
        <ele>99.2</ele>
        <time>2017-12-04T23:16:58.766Z</time>
      </trkpt>
      <trkpt lat="46.729" lon="-0.15764">
        <ele>101.8</ele>
        <time>2017-12-04T23:16:59.696Z</time>
      </trkpt>
      <trkpt lat="46.7289" lon="-0.15822">
        <ele>105.5</ele>
        <time>2017-12-04T23:17:00.518Z</time>
      </trkpt>
      <trkpt lat="46.72891" lon="-0.15822">
        <ele>105.5</ele>
        <time>2017-12-04T23:17:00.538Z</time>
      </trkpt>
      <trkpt lat="46.72892" lon="-0.15823">
        <ele>105.5</ele>
        <time>2017-12-04T23:17:00.562Z</time>
      </trkpt>
      <trkpt lat="46.72894" lon="-0.15825">
        <ele>105.5</ele>
        <time>2017-12-04T23:17:00.611Z</time>
      </trkpt>
      <trkpt lat="46.72894" lon="-0.15829">
        <ele>105.6</ele>
        <time>2017-12-04T23:17:00.666Z</time>
      </trkpt>
      <trkpt lat="46.72893" lon="-0.15835">
        <ele>105.9</ele>
        <time>2017-12-04T23:17:00.751Z</time>
      </trkpt>
      <trkpt lat="46.72889" lon="-0.15839">
        <ele>106</ele>
        <time>2017-12-04T23:17:00.848Z</time>
      </trkpt>
      <trkpt lat="46.72888" lon="-0.15839">
        <ele>106</ele>
        <time>2017-12-04T23:17:00.868Z</time>
      </trkpt>
      <trkpt lat="46.72882" lon="-0.1587">
        <ele>106.2</ele>
        <time>2017-12-04T23:17:01.310Z</time>
      </trkpt>
      <trkpt lat="46.72876" lon="-0.15911">
        <ele>107.3</ele>
        <time>2017-12-04T23:17:01.886Z</time>
      </trkpt>
      <trkpt lat="46.72874" lon="-0.15992">
        <ele>109.2</ele>
        <time>2017-12-04T23:17:02.999Z</time>
      </trkpt>
      <trkpt lat="46.7286" lon="-0.16129">
        <ele>111</ele>
        <time>2017-12-04T23:17:04.902Z</time>
      </trkpt>
      <trkpt lat="46.72844" lon="-0.16227">
        <ele>113.1</ele>
        <time>2017-12-04T23:17:06.286Z</time>
      </trkpt>
      <trkpt lat="46.72841" lon="-0.16279">
        <ele>114</ele>
        <time>2017-12-04T23:17:07.003Z</time>
      </trkpt>
      <trkpt lat="46.72837" lon="-0.16373">
        <ele>116.8</ele>
        <time>2017-12-04T23:17:08.297Z</time>
      </trkpt>
      <trkpt lat="46.72832" lon="-0.16436">
        <ele>120.6</ele>
        <time>2017-12-04T23:17:09.168Z</time>
      </trkpt>
      <trkpt lat="46.72825" lon="-0.16464">
        <ele>123.1</ele>
        <time>2017-12-04T23:17:09.577Z</time>
      </trkpt>
    </trkseg>
  </trk>
</gpx>